<?xml version="1.0" encoding="UTF-8" standalone="no" ?>
<gpx xmlns="http://www.topografix.com/GPX/1/1" xmlns:xsi="http://www.w3.org/2001/XMLSchema-instance" xsi:schemaLocation="http://www.topografix.com/GPX/1/1 http://www.topografix.com/GPX/1/1/gpx.xsd" version="1.1" creator="VisuGPX - https://www.visugpx.com">
  <metadata>
    <name>Lans</name>
  </metadata>
  <trk>
    <name><![CDATA[Lans_1]]></name>
    <extensions>
      <line xmlns="http://www.topografix.com/GPX/gpx_style/0/2">
        <color>0000FF</color>
        <width>4</width>
      </line>
    </extensions>
    <trkseg>
      <trkpt lat="44.42423" lon="6.73699">
        <ele>1229.8</ele>
        <time>2021-06-20T15:02:59Z</time>
      </trkpt>
      <trkpt lat="44.4243" lon="6.73685">
        <ele>1230.2</ele>
        <time>2021-06-20T15:03:03Z</time>
      </trkpt>
      <trkpt lat="44.4244" lon="6.73676">
        <ele>1230.6</ele>
        <time>2021-06-20T15:03:07Z</time>
      </trkpt>
      <trkpt lat="44.42451" lon="6.7367">
        <ele>1231.1</ele>
        <time>2021-06-20T15:03:11Z</time>
      </trkpt>
      <trkpt lat="44.42464" lon="6.73668">
        <ele>1231.7</ele>
        <time>2021-06-20T15:03:15Z</time>
      </trkpt>
      <trkpt lat="44.42476" lon="6.73662">
        <ele>1232.2</ele>
        <time>2021-06-20T15:03:19Z</time>
      </trkpt>
      <trkpt lat="44.42486" lon="6.73654">
        <ele>1232.6</ele>
        <time>2021-06-20T15:03:23Z</time>
      </trkpt>
      <trkpt lat="44.42497" lon="6.7365">
        <ele>1232.9</ele>
        <time>2021-06-20T15:03:27Z</time>
      </trkpt>
      <trkpt lat="44.4251" lon="6.73646">
        <ele>1233.5</ele>
        <time>2021-06-20T15:03:31Z</time>
      </trkpt>
      <trkpt lat="44.42519" lon="6.7364">
        <ele>1234.2</ele>
        <time>2021-06-20T15:03:35Z</time>
      </trkpt>
      <trkpt lat="44.42525" lon="6.73636">
        <ele>1234.7</ele>
        <time>2021-06-20T15:03:39Z</time>
      </trkpt>
      <trkpt lat="44.42534" lon="6.73622">
        <ele>1236</ele>
        <time>2021-06-20T15:03:43Z</time>
      </trkpt>
      <trkpt lat="44.4254" lon="6.73605">
        <ele>1237.5</ele>
        <time>2021-06-20T15:03:47Z</time>
      </trkpt>
      <trkpt lat="44.42548" lon="6.73599">
        <ele>1238.8</ele>
        <time>2021-06-20T15:03:51Z</time>
      </trkpt>
      <trkpt lat="44.42553" lon="6.7359">
        <ele>1240.1</ele>
        <time>2021-06-20T15:03:55Z</time>
      </trkpt>
      <trkpt lat="44.4256" lon="6.73582">
        <ele>1241.7</ele>
        <time>2021-06-20T15:03:59Z</time>
      </trkpt>
      <trkpt lat="44.42565" lon="6.73572">
        <ele>1242.9</ele>
        <time>2021-06-20T15:04:03Z</time>
      </trkpt>
      <trkpt lat="44.42571" lon="6.73562">
        <ele>1244.1</ele>
        <time>2021-06-20T15:04:07Z</time>
      </trkpt>
      <trkpt lat="44.42577" lon="6.73554">
        <ele>1245.2</ele>
        <time>2021-06-20T15:04:11Z</time>
      </trkpt>
      <trkpt lat="44.42586" lon="6.73552">
        <ele>1246.2</ele>
        <time>2021-06-20T15:04:15Z</time>
      </trkpt>
      <trkpt lat="44.42595" lon="6.7355">
        <ele>1246.6</ele>
        <time>2021-06-20T15:04:19Z</time>
      </trkpt>
      <trkpt lat="44.42602" lon="6.73545">
        <ele>1247.1</ele>
        <time>2021-06-20T15:04:23Z</time>
      </trkpt>
      <trkpt lat="44.42608" lon="6.7354">
        <ele>1247.6</ele>
        <time>2021-06-20T15:04:27Z</time>
      </trkpt>
      <trkpt lat="44.42615" lon="6.73536">
        <ele>1248.3</ele>
        <time>2021-06-20T15:04:31Z</time>
      </trkpt>
      <trkpt lat="44.42619" lon="6.73532">
        <ele>1248.8</ele>
        <time>2021-06-20T15:04:35Z</time>
      </trkpt>
      <trkpt lat="44.4263" lon="6.73528">
        <ele>1249.8</ele>
        <time>2021-06-20T15:04:39Z</time>
      </trkpt>
      <trkpt lat="44.42638" lon="6.73531">
        <ele>1249.9</ele>
        <time>2021-06-20T15:04:43Z</time>
      </trkpt>
      <trkpt lat="44.42645" lon="6.73529">
        <ele>1250.6</ele>
        <time>2021-06-20T15:04:47Z</time>
      </trkpt>
      <trkpt lat="44.42654" lon="6.73525">
        <ele>1251.6</ele>
        <time>2021-06-20T15:04:51Z</time>
      </trkpt>
      <trkpt lat="44.42661" lon="6.73519">
        <ele>1252.9</ele>
        <time>2021-06-20T15:04:55Z</time>
      </trkpt>
      <trkpt lat="44.4267" lon="6.73518">
        <ele>1253.6</ele>
        <time>2021-06-20T15:04:59Z</time>
      </trkpt>
      <trkpt lat="44.42678" lon="6.7352">
        <ele>1253.6</ele>
        <time>2021-06-20T15:05:03Z</time>
      </trkpt>
      <trkpt lat="44.42687" lon="6.73533">
        <ele>1252</ele>
        <time>2021-06-20T15:05:07Z</time>
      </trkpt>
      <trkpt lat="44.42701" lon="6.73539">
        <ele>1251.6</ele>
        <time>2021-06-20T15:05:11Z</time>
      </trkpt>
      <trkpt lat="44.42716" lon="6.73545">
        <ele>1251.2</ele>
        <time>2021-06-20T15:05:15Z</time>
      </trkpt>
      <trkpt lat="44.42731" lon="6.73548">
        <ele>1251.3</ele>
        <time>2021-06-20T15:05:19Z</time>
      </trkpt>
      <trkpt lat="44.4275" lon="6.7355">
        <ele>1251.6</ele>
        <time>2021-06-20T15:05:23Z</time>
      </trkpt>
      <trkpt lat="44.42766" lon="6.73547">
        <ele>1252.6</ele>
        <time>2021-06-20T15:05:27Z</time>
      </trkpt>
      <trkpt lat="44.4278" lon="6.73546">
        <ele>1253.2</ele>
        <time>2021-06-20T15:05:31Z</time>
      </trkpt>
      <trkpt lat="44.42797" lon="6.73551">
        <ele>1252.7</ele>
        <time>2021-06-20T15:05:35Z</time>
      </trkpt>
      <trkpt lat="44.42813" lon="6.73551">
        <ele>1253.2</ele>
        <time>2021-06-20T15:05:39Z</time>
      </trkpt>
      <trkpt lat="44.42828" lon="6.73548">
        <ele>1254.3</ele>
        <time>2021-06-20T15:05:43Z</time>
      </trkpt>
      <trkpt lat="44.42845" lon="6.73549">
        <ele>1254.2</ele>
        <time>2021-06-20T15:05:47Z</time>
      </trkpt>
      <trkpt lat="44.42857" lon="6.73547">
        <ele>1254.7</ele>
        <time>2021-06-20T15:05:51Z</time>
      </trkpt>
      <trkpt lat="44.42865" lon="6.73542">
        <ele>1256.1</ele>
        <time>2021-06-20T15:05:55Z</time>
      </trkpt>
      <trkpt lat="44.42872" lon="6.73536">
        <ele>1257.9</ele>
        <time>2021-06-20T15:05:59Z</time>
      </trkpt>
      <trkpt lat="44.4288" lon="6.73534">
        <ele>1258.6</ele>
        <time>2021-06-20T15:06:03Z</time>
      </trkpt>
      <trkpt lat="44.42888" lon="6.73529">
        <ele>1260.3</ele>
        <time>2021-06-20T15:06:07Z</time>
      </trkpt>
      <trkpt lat="44.42896" lon="6.73527">
        <ele>1261.1</ele>
        <time>2021-06-20T15:06:11Z</time>
      </trkpt>
      <trkpt lat="44.42905" lon="6.73525">
        <ele>1262</ele>
        <time>2021-06-20T15:06:15Z</time>
      </trkpt>
      <trkpt lat="44.42914" lon="6.73522">
        <ele>1263.3</ele>
        <time>2021-06-20T15:06:19Z</time>
      </trkpt>
      <trkpt lat="44.42922" lon="6.73526">
        <ele>1264</ele>
        <time>2021-06-20T15:06:23Z</time>
      </trkpt>
      <trkpt lat="44.4293" lon="6.73522">
        <ele>1268.6</ele>
        <time>2021-06-20T15:06:27Z</time>
      </trkpt>
      <trkpt lat="44.42939" lon="6.73523">
        <ele>1271.7</ele>
        <time>2021-06-20T15:06:31Z</time>
      </trkpt>
      <trkpt lat="44.42943" lon="6.7352">
        <ele>1274.4</ele>
        <time>2021-06-20T15:06:35Z</time>
      </trkpt>
      <trkpt lat="44.42949" lon="6.73521">
        <ele>1276.4</ele>
        <time>2021-06-20T15:06:39Z</time>
      </trkpt>
      <trkpt lat="44.42953" lon="6.73523">
        <ele>1277.2</ele>
        <time>2021-06-20T15:06:43Z</time>
      </trkpt>
      <trkpt lat="44.42959" lon="6.73524">
        <ele>1279.1</ele>
        <time>2021-06-20T15:06:47Z</time>
      </trkpt>
      <trkpt lat="44.42964" lon="6.73526">
        <ele>1280.2</ele>
        <time>2021-06-20T15:06:51Z</time>
      </trkpt>
      <trkpt lat="44.4297" lon="6.73532">
        <ele>1280.1</ele>
        <time>2021-06-20T15:06:55Z</time>
      </trkpt>
      <trkpt lat="44.42975" lon="6.73535">
        <ele>1280.7</ele>
        <time>2021-06-20T15:07:15Z</time>
      </trkpt>
      <trkpt lat="44.42979" lon="6.73536">
        <ele>1281.7</ele>
        <time>2021-06-20T15:07:19Z</time>
      </trkpt>
      <trkpt lat="44.42984" lon="6.73538">
        <ele>1282.7</ele>
        <time>2021-06-20T15:07:23Z</time>
      </trkpt>
      <trkpt lat="44.42987" lon="6.73541">
        <ele>1282.5</ele>
        <time>2021-06-20T15:07:27Z</time>
      </trkpt>
      <trkpt lat="44.4299" lon="6.73542">
        <ele>1283.2</ele>
        <time>2021-06-20T15:07:31Z</time>
      </trkpt>
      <trkpt lat="44.42993" lon="6.73543">
        <ele>1283.8</ele>
        <time>2021-06-20T15:07:35Z</time>
      </trkpt>
      <trkpt lat="44.42997" lon="6.73547">
        <ele>1283.5</ele>
        <time>2021-06-20T15:07:39Z</time>
      </trkpt>
      <trkpt lat="44.43001" lon="6.73551">
        <ele>1283.3</ele>
        <time>2021-06-20T15:07:43Z</time>
      </trkpt>
      <trkpt lat="44.43005" lon="6.73552">
        <ele>1284.9</ele>
        <time>2021-06-20T15:07:47Z</time>
      </trkpt>
      <trkpt lat="44.43011" lon="6.73561">
        <ele>1283.8</ele>
        <time>2021-06-20T15:07:51Z</time>
      </trkpt>
      <trkpt lat="44.43017" lon="6.73564">
        <ele>1285.4</ele>
        <time>2021-06-20T15:07:55Z</time>
      </trkpt>
      <trkpt lat="44.43023" lon="6.73568">
        <ele>1286.6</ele>
        <time>2021-06-20T15:07:59Z</time>
      </trkpt>
      <trkpt lat="44.43026" lon="6.73575">
        <ele>1284.7</ele>
        <time>2021-06-20T15:08:03Z</time>
      </trkpt>
      <trkpt lat="44.43031" lon="6.73581">
        <ele>1284.4</ele>
        <time>2021-06-20T15:08:07Z</time>
      </trkpt>
      <trkpt lat="44.43036" lon="6.73586">
        <ele>1285</ele>
        <time>2021-06-20T15:08:11Z</time>
      </trkpt>
      <trkpt lat="44.43042" lon="6.7359">
        <ele>1286.8</ele>
        <time>2021-06-20T15:08:15Z</time>
      </trkpt>
      <trkpt lat="44.43044" lon="6.73594">
        <ele>1286.6</ele>
        <time>2021-06-20T15:08:19Z</time>
      </trkpt>
      <trkpt lat="44.43048" lon="6.73597">
        <ele>1287.6</ele>
        <time>2021-06-20T15:08:23Z</time>
      </trkpt>
      <trkpt lat="44.43052" lon="6.73601">
        <ele>1288.3</ele>
        <time>2021-06-20T15:08:27Z</time>
      </trkpt>
      <trkpt lat="44.43058" lon="6.73607">
        <ele>1289.2</ele>
        <time>2021-06-20T15:08:31Z</time>
      </trkpt>
      <trkpt lat="44.43061" lon="6.73609">
        <ele>1290</ele>
        <time>2021-06-20T15:08:35Z</time>
      </trkpt>
      <trkpt lat="44.43065" lon="6.7361">
        <ele>1291.5</ele>
        <time>2021-06-20T15:08:39Z</time>
      </trkpt>
      <trkpt lat="44.43069" lon="6.73616">
        <ele>1291.3</ele>
        <time>2021-06-20T15:08:43Z</time>
      </trkpt>
      <trkpt lat="44.43073" lon="6.7362">
        <ele>1291.8</ele>
        <time>2021-06-20T15:08:47Z</time>
      </trkpt>
      <trkpt lat="44.43077" lon="6.73621">
        <ele>1293.2</ele>
        <time>2021-06-20T15:08:51Z</time>
      </trkpt>
      <trkpt lat="44.43082" lon="6.73625">
        <ele>1293.9</ele>
        <time>2021-06-20T15:08:55Z</time>
      </trkpt>
      <trkpt lat="44.43085" lon="6.73632">
        <ele>1292.8</ele>
        <time>2021-06-20T15:08:59Z</time>
      </trkpt>
      <trkpt lat="44.43088" lon="6.73639">
        <ele>1291.8</ele>
        <time>2021-06-20T15:09:03Z</time>
      </trkpt>
      <trkpt lat="44.43093" lon="6.73647">
        <ele>1291.3</ele>
        <time>2021-06-20T15:09:07Z</time>
      </trkpt>
      <trkpt lat="44.43098" lon="6.73654">
        <ele>1291.1</ele>
        <time>2021-06-20T15:09:11Z</time>
      </trkpt>
      <trkpt lat="44.43101" lon="6.73664">
        <ele>1289</ele>
        <time>2021-06-20T15:09:15Z</time>
      </trkpt>
      <trkpt lat="44.43104" lon="6.73671">
        <ele>1288.3</ele>
        <time>2021-06-20T15:09:19Z</time>
      </trkpt>
      <trkpt lat="44.43109" lon="6.73675">
        <ele>1289.4</ele>
        <time>2021-06-20T15:09:23Z</time>
      </trkpt>
      <trkpt lat="44.43115" lon="6.73677">
        <ele>1291.6</ele>
        <time>2021-06-20T15:09:27Z</time>
      </trkpt>
      <trkpt lat="44.43121" lon="6.73676">
        <ele>1294.5</ele>
        <time>2021-06-20T15:09:31Z</time>
      </trkpt>
      <trkpt lat="44.43127" lon="6.73678">
        <ele>1296.6</ele>
        <time>2021-06-20T15:09:35Z</time>
      </trkpt>
      <trkpt lat="44.43132" lon="6.73676">
        <ele>1299.4</ele>
        <time>2021-06-20T15:09:39Z</time>
      </trkpt>
      <trkpt lat="44.43137" lon="6.7368">
        <ele>1300.5</ele>
        <time>2021-06-20T15:09:43Z</time>
      </trkpt>
      <trkpt lat="44.43143" lon="6.73681">
        <ele>1302.9</ele>
        <time>2021-06-20T15:09:47Z</time>
      </trkpt>
      <trkpt lat="44.43149" lon="6.73684">
        <ele>1304.6</ele>
        <time>2021-06-20T15:09:51Z</time>
      </trkpt>
      <trkpt lat="44.43155" lon="6.73687">
        <ele>1306.3</ele>
        <time>2021-06-20T15:09:55Z</time>
      </trkpt>
      <trkpt lat="44.43163" lon="6.73694">
        <ele>1307.6</ele>
        <time>2021-06-20T15:09:59Z</time>
      </trkpt>
      <trkpt lat="44.43168" lon="6.73701">
        <ele>1307.4</ele>
        <time>2021-06-20T15:10:03Z</time>
      </trkpt>
      <trkpt lat="44.43174" lon="6.73708">
        <ele>1307.5</ele>
        <time>2021-06-20T15:10:07Z</time>
      </trkpt>
      <trkpt lat="44.4318" lon="6.73711">
        <ele>1309</ele>
        <time>2021-06-20T15:10:11Z</time>
      </trkpt>
      <trkpt lat="44.43186" lon="6.73713">
        <ele>1310.8</ele>
        <time>2021-06-20T15:10:15Z</time>
      </trkpt>
      <trkpt lat="44.43191" lon="6.73716">
        <ele>1311.9</ele>
        <time>2021-06-20T15:10:19Z</time>
      </trkpt>
      <trkpt lat="44.43196" lon="6.73722">
        <ele>1312.3</ele>
        <time>2021-06-20T15:10:23Z</time>
      </trkpt>
      <trkpt lat="44.43199" lon="6.73732">
        <ele>1310.7</ele>
        <time>2021-06-20T15:10:27Z</time>
      </trkpt>
      <trkpt lat="44.43201" lon="6.7374">
        <ele>1309.4</ele>
        <time>2021-06-20T15:10:31Z</time>
      </trkpt>
      <trkpt lat="44.43204" lon="6.73747">
        <ele>1308.8</ele>
        <time>2021-06-20T15:10:35Z</time>
      </trkpt>
      <trkpt lat="44.43206" lon="6.73755">
        <ele>1307.6</ele>
        <time>2021-06-20T15:10:39Z</time>
      </trkpt>
      <trkpt lat="44.43208" lon="6.73761">
        <ele>1307</ele>
        <time>2021-06-20T15:10:43Z</time>
      </trkpt>
      <trkpt lat="44.43208" lon="6.73769">
        <ele>1304.9</ele>
        <time>2021-06-20T15:10:47Z</time>
      </trkpt>
      <trkpt lat="44.43207" lon="6.73778">
        <ele>1302.1</ele>
        <time>2021-06-20T15:10:51Z</time>
      </trkpt>
      <trkpt lat="44.43206" lon="6.73783">
        <ele>1300.3</ele>
        <time>2021-06-20T15:10:55Z</time>
      </trkpt>
      <trkpt lat="44.43207" lon="6.73793">
        <ele>1298.2</ele>
        <time>2021-06-20T15:10:59Z</time>
      </trkpt>
      <trkpt lat="44.4321" lon="6.738">
        <ele>1298</ele>
        <time>2021-06-20T15:11:03Z</time>
      </trkpt>
      <trkpt lat="44.43214" lon="6.73805">
        <ele>1298.8</ele>
        <time>2021-06-20T15:11:07Z</time>
      </trkpt>
      <trkpt lat="44.43219" lon="6.7381">
        <ele>1300.2</ele>
        <time>2021-06-20T15:11:11Z</time>
      </trkpt>
      <trkpt lat="44.43224" lon="6.73815">
        <ele>1301.7</ele>
        <time>2021-06-20T15:11:15Z</time>
      </trkpt>
      <trkpt lat="44.43232" lon="6.73827">
        <ele>1303.3</ele>
        <time>2021-06-20T15:11:19Z</time>
      </trkpt>
      <trkpt lat="44.43249" lon="6.73849">
        <ele>1305.6</ele>
        <time>2021-06-20T15:11:23Z</time>
      </trkpt>
      <trkpt lat="44.43271" lon="6.73862">
        <ele>1307.1</ele>
        <time>2021-06-20T15:11:27Z</time>
      </trkpt>
      <trkpt lat="44.43296" lon="6.73868">
        <ele>1311.8</ele>
        <time>2021-06-20T15:11:31Z</time>
      </trkpt>
      <trkpt lat="44.43311" lon="6.73879">
        <ele>1312.4</ele>
        <time>2021-06-20T15:11:35Z</time>
      </trkpt>
      <trkpt lat="44.43327" lon="6.73892">
        <ele>1312.8</ele>
        <time>2021-06-20T15:11:39Z</time>
      </trkpt>
      <trkpt lat="44.43342" lon="6.73895">
        <ele>1314.7</ele>
        <time>2021-06-20T15:11:43Z</time>
      </trkpt>
      <trkpt lat="44.43362" lon="6.73901">
        <ele>1315.4</ele>
        <time>2021-06-20T15:11:47Z</time>
      </trkpt>
      <trkpt lat="44.43389" lon="6.73909">
        <ele>1316.8</ele>
        <time>2021-06-20T15:11:51Z</time>
      </trkpt>
      <trkpt lat="44.43414" lon="6.73915">
        <ele>1318.9</ele>
        <time>2021-06-20T15:11:55Z</time>
      </trkpt>
      <trkpt lat="44.43432" lon="6.73945">
        <ele>1317.3</ele>
        <time>2021-06-20T15:11:59Z</time>
      </trkpt>
      <trkpt lat="44.43424" lon="6.7398">
        <ele>1304.1</ele>
        <time>2021-06-20T15:12:03Z</time>
      </trkpt>
      <trkpt lat="44.43401" lon="6.7399">
        <ele>1295</ele>
        <time>2021-06-20T15:12:07Z</time>
      </trkpt>
      <trkpt lat="44.434" lon="6.74011">
        <ele>1287.2</ele>
        <time>2021-06-20T15:12:11Z</time>
      </trkpt>
      <trkpt lat="44.43417" lon="6.74026">
        <ele>1284.2</ele>
        <time>2021-06-20T15:12:15Z</time>
      </trkpt>
      <trkpt lat="44.43438" lon="6.74021">
        <ele>1296.7</ele>
        <time>2021-06-20T15:12:19Z</time>
      </trkpt>
      <trkpt lat="44.4346" lon="6.74009">
        <ele>1312.3</ele>
        <time>2021-06-20T15:12:23Z</time>
      </trkpt>
      <trkpt lat="44.43476" lon="6.74018">
        <ele>1316.7</ele>
        <time>2021-06-20T15:12:27Z</time>
      </trkpt>
      <trkpt lat="44.43496" lon="6.74047">
        <ele>1316</ele>
        <time>2021-06-20T15:12:31Z</time>
      </trkpt>
      <trkpt lat="44.43497" lon="6.74088">
        <ele>1301.8</ele>
        <time>2021-06-20T15:12:35Z</time>
      </trkpt>
      <trkpt lat="44.43487" lon="6.74089">
        <ele>1296.1</ele>
        <time>2021-06-20T15:12:39Z</time>
      </trkpt>
      <trkpt lat="44.43475" lon="6.74072">
        <ele>1295.8</ele>
        <time>2021-06-20T15:12:43Z</time>
      </trkpt>
      <trkpt lat="44.43454" lon="6.74067">
        <ele>1286.6</ele>
        <time>2021-06-20T15:12:47Z</time>
      </trkpt>
      <trkpt lat="44.43429" lon="6.74077">
        <ele>1269.3</ele>
        <time>2021-06-20T15:12:51Z</time>
      </trkpt>
      <trkpt lat="44.43402" lon="6.74088">
        <ele>1256.2</ele>
        <time>2021-06-20T15:12:55Z</time>
      </trkpt>
      <trkpt lat="44.43371" lon="6.74098">
        <ele>1248.9</ele>
        <time>2021-06-20T15:12:59Z</time>
      </trkpt>
      <trkpt lat="44.43373" lon="6.7411">
        <ele>1247.2</ele>
        <time>2021-06-20T15:13:03Z</time>
      </trkpt>
      <trkpt lat="44.43396" lon="6.74111">
        <ele>1250.4</ele>
        <time>2021-06-20T15:13:07Z</time>
      </trkpt>
      <trkpt lat="44.43402" lon="6.74125">
        <ele>1248.2</ele>
        <time>2021-06-20T15:13:11Z</time>
      </trkpt>
      <trkpt lat="44.43388" lon="6.7413">
        <ele>1245.6</ele>
        <time>2021-06-20T15:13:15Z</time>
      </trkpt>
      <trkpt lat="44.43365" lon="6.74135">
        <ele>1242.3</ele>
        <time>2021-06-20T15:13:19Z</time>
      </trkpt>
      <trkpt lat="44.4336" lon="6.74141">
        <ele>1240.9</ele>
        <time>2021-06-20T15:13:23Z</time>
      </trkpt>
      <trkpt lat="44.43361" lon="6.74142">
        <ele>1240.9</ele>
        <time>2021-06-20T15:13:27Z</time>
      </trkpt>
      <trkpt lat="44.43362" lon="6.74155">
        <ele>1239.1</ele>
        <time>2021-06-20T15:13:31Z</time>
      </trkpt>
      <trkpt lat="44.43365" lon="6.74171">
        <ele>1237.9</ele>
        <time>2021-06-20T15:13:35Z</time>
      </trkpt>
      <trkpt lat="44.43369" lon="6.74194">
        <ele>1240.1</ele>
        <time>2021-06-20T15:13:39Z</time>
      </trkpt>
      <trkpt lat="44.43368" lon="6.74218">
        <ele>1242.2</ele>
        <time>2021-06-20T15:13:43Z</time>
      </trkpt>
      <trkpt lat="44.43365" lon="6.74238">
        <ele>1243.5</ele>
        <time>2021-06-20T15:13:47Z</time>
      </trkpt>
      <trkpt lat="44.4336" lon="6.74255">
        <ele>1243.9</ele>
        <time>2021-06-20T15:13:51Z</time>
      </trkpt>
      <trkpt lat="44.43353" lon="6.74275">
        <ele>1243</ele>
        <time>2021-06-20T15:13:55Z</time>
      </trkpt>
      <trkpt lat="44.43341" lon="6.74291">
        <ele>1241.5</ele>
        <time>2021-06-20T15:13:59Z</time>
      </trkpt>
      <trkpt lat="44.43328" lon="6.74298">
        <ele>1242.2</ele>
        <time>2021-06-20T15:14:03Z</time>
      </trkpt>
      <trkpt lat="44.43318" lon="6.74301">
        <ele>1245.3</ele>
        <time>2021-06-20T15:14:07Z</time>
      </trkpt>
      <trkpt lat="44.43308" lon="6.74298">
        <ele>1248.3</ele>
        <time>2021-06-20T15:14:11Z</time>
      </trkpt>
      <trkpt lat="44.43297" lon="6.74292">
        <ele>1251.4</ele>
        <time>2021-06-20T15:14:15Z</time>
      </trkpt>
      <trkpt lat="44.43298" lon="6.74274">
        <ele>1250.5</ele>
        <time>2021-06-20T15:14:19Z</time>
      </trkpt>
      <trkpt lat="44.43299" lon="6.74259">
        <ele>1249.8</ele>
        <time>2021-06-20T15:14:23Z</time>
      </trkpt>
      <trkpt lat="44.43299" lon="6.74244">
        <ele>1249</ele>
        <time>2021-06-20T15:14:27Z</time>
      </trkpt>
      <trkpt lat="44.433" lon="6.74231">
        <ele>1247.6</ele>
        <time>2021-06-20T15:14:31Z</time>
      </trkpt>
      <trkpt lat="44.433" lon="6.74219">
        <ele>1246.5</ele>
        <time>2021-06-20T15:14:35Z</time>
      </trkpt>
      <trkpt lat="44.43299" lon="6.74208">
        <ele>1245.8</ele>
        <time>2021-06-20T15:14:39Z</time>
      </trkpt>
      <trkpt lat="44.43298" lon="6.74198">
        <ele>1245.1</ele>
        <time>2021-06-20T15:14:43Z</time>
      </trkpt>
      <trkpt lat="44.43294" lon="6.74191">
        <ele>1245.4</ele>
        <time>2021-06-20T15:14:47Z</time>
      </trkpt>
      <trkpt lat="44.43291" lon="6.74183">
        <ele>1245.2</ele>
        <time>2021-06-20T15:14:51Z</time>
      </trkpt>
      <trkpt lat="44.43287" lon="6.74178">
        <ele>1245.5</ele>
        <time>2021-06-20T15:14:55Z</time>
      </trkpt>
      <trkpt lat="44.43284" lon="6.74174">
        <ele>1245.6</ele>
        <time>2021-06-20T15:14:59Z</time>
      </trkpt>
      <trkpt lat="44.43278" lon="6.74171">
        <ele>1246.4</ele>
        <time>2021-06-20T15:15:03Z</time>
      </trkpt>
      <trkpt lat="44.43268" lon="6.74171">
        <ele>1248.3</ele>
        <time>2021-06-20T15:15:07Z</time>
      </trkpt>
      <trkpt lat="44.43262" lon="6.74167">
        <ele>1248.9</ele>
        <time>2021-06-20T15:15:11Z</time>
      </trkpt>
      <trkpt lat="44.43259" lon="6.74173">
        <ele>1250.2</ele>
        <time>2021-06-20T15:15:15Z</time>
      </trkpt>
      <trkpt lat="44.43257" lon="6.74181">
        <ele>1251.7</ele>
        <time>2021-06-20T15:15:19Z</time>
      </trkpt>
      <trkpt lat="44.43253" lon="6.74186">
        <ele>1253.2</ele>
        <time>2021-06-20T15:15:23Z</time>
      </trkpt>
      <trkpt lat="44.43247" lon="6.74193">
        <ele>1255.3</ele>
        <time>2021-06-20T15:15:27Z</time>
      </trkpt>
      <trkpt lat="44.43241" lon="6.74198">
        <ele>1257.1</ele>
        <time>2021-06-20T15:15:31Z</time>
      </trkpt>
      <trkpt lat="44.43234" lon="6.74207">
        <ele>1259.8</ele>
        <time>2021-06-20T15:15:35Z</time>
      </trkpt>
      <trkpt lat="44.43231" lon="6.74216">
        <ele>1261.8</ele>
        <time>2021-06-20T15:15:39Z</time>
      </trkpt>
      <trkpt lat="44.43228" lon="6.74225">
        <ele>1263.9</ele>
        <time>2021-06-20T15:15:43Z</time>
      </trkpt>
      <trkpt lat="44.43227" lon="6.74233">
        <ele>1265.4</ele>
        <time>2021-06-20T15:15:47Z</time>
      </trkpt>
      <trkpt lat="44.43223" lon="6.74238">
        <ele>1267.1</ele>
        <time>2021-06-20T15:15:51Z</time>
      </trkpt>
      <trkpt lat="44.43217" lon="6.74237">
        <ele>1268.2</ele>
        <time>2021-06-20T15:15:55Z</time>
      </trkpt>
      <trkpt lat="44.43208" lon="6.74238">
        <ele>1270.3</ele>
        <time>2021-06-20T15:15:59Z</time>
      </trkpt>
      <trkpt lat="44.43203" lon="6.74237">
        <ele>1271.2</ele>
        <time>2021-06-20T15:16:03Z</time>
      </trkpt>
      <trkpt lat="44.43197" lon="6.74234">
        <ele>1271.9</ele>
        <time>2021-06-20T15:16:07Z</time>
      </trkpt>
      <trkpt lat="44.4319" lon="6.74229">
        <ele>1272.4</ele>
        <time>2021-06-20T15:16:11Z</time>
      </trkpt>
      <trkpt lat="44.43184" lon="6.74225">
        <ele>1272.8</ele>
        <time>2021-06-20T15:16:15Z</time>
      </trkpt>
      <trkpt lat="44.43174" lon="6.74224">
        <ele>1274.6</ele>
        <time>2021-06-20T15:16:19Z</time>
      </trkpt>
      <trkpt lat="44.43172" lon="6.7423">
        <ele>1276.3</ele>
        <time>2021-06-20T15:16:23Z</time>
      </trkpt>
      <trkpt lat="44.43178" lon="6.74232">
        <ele>1275.5</ele>
        <time>2021-06-20T15:16:27Z</time>
      </trkpt>
      <trkpt lat="44.43183" lon="6.74235">
        <ele>1275.1</ele>
        <time>2021-06-20T15:16:31Z</time>
      </trkpt>
      <trkpt lat="44.43188" lon="6.74241">
        <ele>1275.3</ele>
        <time>2021-06-20T15:16:35Z</time>
      </trkpt>
      <trkpt lat="44.43191" lon="6.7425">
        <ele>1276.5</ele>
        <time>2021-06-20T15:16:39Z</time>
      </trkpt>
      <trkpt lat="44.43196" lon="6.74257">
        <ele>1276.7</ele>
        <time>2021-06-20T15:16:43Z</time>
      </trkpt>
      <trkpt lat="44.43198" lon="6.74265">
        <ele>1277.7</ele>
        <time>2021-06-20T15:16:47Z</time>
      </trkpt>
      <trkpt lat="44.432" lon="6.74274">
        <ele>1278.8</ele>
        <time>2021-06-20T15:16:51Z</time>
      </trkpt>
      <trkpt lat="44.43202" lon="6.74282">
        <ele>1279.6</ele>
        <time>2021-06-20T15:16:55Z</time>
      </trkpt>
      <trkpt lat="44.43204" lon="6.7429">
        <ele>1280.4</ele>
        <time>2021-06-20T15:16:59Z</time>
      </trkpt>
      <trkpt lat="44.43205" lon="6.743">
        <ele>1281.8</ele>
        <time>2021-06-20T15:17:03Z</time>
      </trkpt>
      <trkpt lat="44.43207" lon="6.74306">
        <ele>1282.1</ele>
        <time>2021-06-20T15:17:07Z</time>
      </trkpt>
      <trkpt lat="44.43204" lon="6.74315">
        <ele>1284.7</ele>
        <time>2021-06-20T15:17:11Z</time>
      </trkpt>
      <trkpt lat="44.43199" lon="6.74314">
        <ele>1286.5</ele>
        <time>2021-06-20T15:17:15Z</time>
      </trkpt>
      <trkpt lat="44.43196" lon="6.74307">
        <ele>1286.3</ele>
        <time>2021-06-20T15:17:19Z</time>
      </trkpt>
      <trkpt lat="44.43195" lon="6.743">
        <ele>1285.3</ele>
        <time>2021-06-20T15:17:23Z</time>
      </trkpt>
      <trkpt lat="44.4319" lon="6.74295">
        <ele>1286</ele>
        <time>2021-06-20T15:17:27Z</time>
      </trkpt>
      <trkpt lat="44.43186" lon="6.74288">
        <ele>1285.8</ele>
        <time>2021-06-20T15:17:31Z</time>
      </trkpt>
      <trkpt lat="44.43183" lon="6.74282">
        <ele>1285.4</ele>
        <time>2021-06-20T15:17:35Z</time>
      </trkpt>
      <trkpt lat="44.43179" lon="6.74278">
        <ele>1285.7</ele>
        <time>2021-06-20T15:17:39Z</time>
      </trkpt>
      <trkpt lat="44.43175" lon="6.74276">
        <ele>1286.4</ele>
        <time>2021-06-20T15:17:43Z</time>
      </trkpt>
      <trkpt lat="44.4317" lon="6.74273">
        <ele>1287.1</ele>
        <time>2021-06-20T15:17:47Z</time>
      </trkpt>
      <trkpt lat="44.43166" lon="6.7427">
        <ele>1287.6</ele>
        <time>2021-06-20T15:17:51Z</time>
      </trkpt>
      <trkpt lat="44.43161" lon="6.74268">
        <ele>1289.3</ele>
        <time>2021-06-20T15:17:55Z</time>
      </trkpt>
      <trkpt lat="44.43158" lon="6.74265">
        <ele>1289.9</ele>
        <time>2021-06-20T15:17:59Z</time>
      </trkpt>
      <trkpt lat="44.43153" lon="6.74265">
        <ele>1292.1</ele>
        <time>2021-06-20T15:18:03Z</time>
      </trkpt>
      <trkpt lat="44.43146" lon="6.74265">
        <ele>1295.3</ele>
        <time>2021-06-20T15:18:07Z</time>
      </trkpt>
      <trkpt lat="44.4314" lon="6.74265">
        <ele>1297.9</ele>
        <time>2021-06-20T15:18:11Z</time>
      </trkpt>
      <trkpt lat="44.43135" lon="6.74265">
        <ele>1300.2</ele>
        <time>2021-06-20T15:18:15Z</time>
      </trkpt>
      <trkpt lat="44.4313" lon="6.74266">
        <ele>1302.7</ele>
        <time>2021-06-20T15:18:19Z</time>
      </trkpt>
      <trkpt lat="44.43126" lon="6.74264">
        <ele>1304</ele>
        <time>2021-06-20T15:18:27Z</time>
      </trkpt>
      <trkpt lat="44.43122" lon="6.74262">
        <ele>1305.3</ele>
        <time>2021-06-20T15:18:31Z</time>
      </trkpt>
      <trkpt lat="44.43116" lon="6.74255">
        <ele>1306.3</ele>
        <time>2021-06-20T15:18:35Z</time>
      </trkpt>
      <trkpt lat="44.43111" lon="6.7425">
        <ele>1307.4</ele>
        <time>2021-06-20T15:18:39Z</time>
      </trkpt>
      <trkpt lat="44.43107" lon="6.74246">
        <ele>1308.3</ele>
        <time>2021-06-20T15:18:43Z</time>
      </trkpt>
      <trkpt lat="44.43101" lon="6.74241">
        <ele>1310</ele>
        <time>2021-06-20T15:18:47Z</time>
      </trkpt>
      <trkpt lat="44.43097" lon="6.74234">
        <ele>1310.3</ele>
        <time>2021-06-20T15:18:51Z</time>
      </trkpt>
      <trkpt lat="44.43094" lon="6.74227">
        <ele>1310.1</ele>
        <time>2021-06-20T15:18:55Z</time>
      </trkpt>
      <trkpt lat="44.43092" lon="6.74221">
        <ele>1309.7</ele>
        <time>2021-06-20T15:18:59Z</time>
      </trkpt>
      <trkpt lat="44.43089" lon="6.74215">
        <ele>1309.8</ele>
        <time>2021-06-20T15:19:03Z</time>
      </trkpt>
      <trkpt lat="44.43085" lon="6.7421">
        <ele>1310.6</ele>
        <time>2021-06-20T15:19:07Z</time>
      </trkpt>
      <trkpt lat="44.43082" lon="6.74204">
        <ele>1310.6</ele>
        <time>2021-06-20T15:19:11Z</time>
      </trkpt>
      <trkpt lat="44.43079" lon="6.74197">
        <ele>1310.4</ele>
        <time>2021-06-20T15:19:15Z</time>
      </trkpt>
      <trkpt lat="44.43077" lon="6.74189">
        <ele>1309.5</ele>
        <time>2021-06-20T15:19:19Z</time>
      </trkpt>
      <trkpt lat="44.43074" lon="6.74182">
        <ele>1309.4</ele>
        <time>2021-06-20T15:19:23Z</time>
      </trkpt>
      <trkpt lat="44.43072" lon="6.74176">
        <ele>1309</ele>
        <time>2021-06-20T15:19:27Z</time>
      </trkpt>
      <trkpt lat="44.4307" lon="6.74172">
        <ele>1309</ele>
        <time>2021-06-20T15:19:31Z</time>
      </trkpt>
      <trkpt lat="44.43067" lon="6.74166">
        <ele>1309.2</ele>
        <time>2021-06-20T15:19:35Z</time>
      </trkpt>
      <trkpt lat="44.43065" lon="6.74162">
        <ele>1309.6</ele>
        <time>2021-06-20T15:19:39Z</time>
      </trkpt>
      <trkpt lat="44.4306" lon="6.74158">
        <ele>1311.2</ele>
        <time>2021-06-20T15:19:43Z</time>
      </trkpt>
      <trkpt lat="44.43055" lon="6.74154">
        <ele>1312.8</ele>
        <time>2021-06-20T15:19:47Z</time>
      </trkpt>
      <trkpt lat="44.43052" lon="6.74151">
        <ele>1313.6</ele>
        <time>2021-06-20T15:19:51Z</time>
      </trkpt>
      <trkpt lat="44.43048" lon="6.74145">
        <ele>1314.4</ele>
        <time>2021-06-20T15:19:55Z</time>
      </trkpt>
      <trkpt lat="44.43043" lon="6.74139">
        <ele>1315.5</ele>
        <time>2021-06-20T15:19:59Z</time>
      </trkpt>
      <trkpt lat="44.4304" lon="6.74132">
        <ele>1315.5</ele>
        <time>2021-06-20T15:20:03Z</time>
      </trkpt>
      <trkpt lat="44.43036" lon="6.74127">
        <ele>1316.2</ele>
        <time>2021-06-20T15:20:07Z</time>
      </trkpt>
      <trkpt lat="44.4303" lon="6.74122">
        <ele>1317.6</ele>
        <time>2021-06-20T15:20:11Z</time>
      </trkpt>
      <trkpt lat="44.43026" lon="6.74116">
        <ele>1318</ele>
        <time>2021-06-20T15:20:15Z</time>
      </trkpt>
      <trkpt lat="44.43023" lon="6.74112">
        <ele>1318.3</ele>
        <time>2021-06-20T15:20:19Z</time>
      </trkpt>
      <trkpt lat="44.4302" lon="6.74107">
        <ele>1318.4</ele>
        <time>2021-06-20T15:20:23Z</time>
      </trkpt>
      <trkpt lat="44.43014" lon="6.74106">
        <ele>1320.3</ele>
        <time>2021-06-20T15:20:27Z</time>
      </trkpt>
      <trkpt lat="44.4301" lon="6.741">
        <ele>1320.4</ele>
        <time>2021-06-20T15:20:31Z</time>
      </trkpt>
      <trkpt lat="44.43006" lon="6.74098">
        <ele>1321.3</ele>
        <time>2021-06-20T15:20:35Z</time>
      </trkpt>
      <trkpt lat="44.43001" lon="6.74094">
        <ele>1322.1</ele>
        <time>2021-06-20T15:20:39Z</time>
      </trkpt>
      <trkpt lat="44.42997" lon="6.7409">
        <ele>1322.5</ele>
        <time>2021-06-20T15:20:43Z</time>
      </trkpt>
      <trkpt lat="44.42992" lon="6.74086">
        <ele>1323.3</ele>
        <time>2021-06-20T15:20:47Z</time>
      </trkpt>
      <trkpt lat="44.42987" lon="6.74084">
        <ele>1324.5</ele>
        <time>2021-06-20T15:20:51Z</time>
      </trkpt>
      <trkpt lat="44.42983" lon="6.7408">
        <ele>1325.2</ele>
        <time>2021-06-20T15:20:55Z</time>
      </trkpt>
      <trkpt lat="44.42978" lon="6.74076">
        <ele>1326.2</ele>
        <time>2021-06-20T15:20:59Z</time>
      </trkpt>
      <trkpt lat="44.42973" lon="6.74071">
        <ele>1327.1</ele>
        <time>2021-06-20T15:21:03Z</time>
      </trkpt>
      <trkpt lat="44.42969" lon="6.74067">
        <ele>1327.8</ele>
        <time>2021-06-20T15:21:07Z</time>
      </trkpt>
      <trkpt lat="44.42965" lon="6.7406">
        <ele>1328.1</ele>
        <time>2021-06-20T15:21:11Z</time>
      </trkpt>
      <trkpt lat="44.4296" lon="6.74054">
        <ele>1329</ele>
        <time>2021-06-20T15:21:15Z</time>
      </trkpt>
      <trkpt lat="44.42957" lon="6.74051">
        <ele>1329.6</ele>
        <time>2021-06-20T15:21:19Z</time>
      </trkpt>
      <trkpt lat="44.42954" lon="6.74047">
        <ele>1330.1</ele>
        <time>2021-06-20T15:21:23Z</time>
      </trkpt>
      <trkpt lat="44.42951" lon="6.74044">
        <ele>1330.8</ele>
        <time>2021-06-20T15:21:27Z</time>
      </trkpt>
      <trkpt lat="44.42945" lon="6.74043">
        <ele>1332.8</ele>
        <time>2021-06-20T15:21:31Z</time>
      </trkpt>
      <trkpt lat="44.42941" lon="6.74041">
        <ele>1334</ele>
        <time>2021-06-20T15:21:35Z</time>
      </trkpt>
      <trkpt lat="44.42936" lon="6.7404">
        <ele>1335.7</ele>
        <time>2021-06-20T15:21:39Z</time>
      </trkpt>
      <trkpt lat="44.42932" lon="6.74038">
        <ele>1336.9</ele>
        <time>2021-06-20T15:21:43Z</time>
      </trkpt>
      <trkpt lat="44.42923" lon="6.74038">
        <ele>1340.2</ele>
        <time>2021-06-20T15:21:47Z</time>
      </trkpt>
      <trkpt lat="44.42919" lon="6.74039">
        <ele>1341.8</ele>
        <time>2021-06-20T15:21:51Z</time>
      </trkpt>
      <trkpt lat="44.42915" lon="6.74041">
        <ele>1343.3</ele>
        <time>2021-06-20T15:21:55Z</time>
      </trkpt>
      <trkpt lat="44.42912" lon="6.74042">
        <ele>1344</ele>
        <time>2021-06-20T15:21:59Z</time>
      </trkpt>
      <trkpt lat="44.42906" lon="6.74042">
        <ele>1345.2</ele>
        <time>2021-06-20T15:22:03Z</time>
      </trkpt>
      <trkpt lat="44.429" lon="6.74038">
        <ele>1345.9</ele>
        <time>2021-06-20T15:22:07Z</time>
      </trkpt>
      <trkpt lat="44.42895" lon="6.74037">
        <ele>1346.8</ele>
        <time>2021-06-20T15:22:11Z</time>
      </trkpt>
      <trkpt lat="44.4289" lon="6.74034">
        <ele>1347.5</ele>
        <time>2021-06-20T15:22:15Z</time>
      </trkpt>
      <trkpt lat="44.42885" lon="6.74031">
        <ele>1348.1</ele>
        <time>2021-06-20T15:22:19Z</time>
      </trkpt>
      <trkpt lat="44.42881" lon="6.74029">
        <ele>1348.6</ele>
        <time>2021-06-20T15:22:23Z</time>
      </trkpt>
      <trkpt lat="44.42876" lon="6.74028">
        <ele>1349.5</ele>
        <time>2021-06-20T15:22:27Z</time>
      </trkpt>
      <trkpt lat="44.42867" lon="6.74028">
        <ele>1351.3</ele>
        <time>2021-06-20T15:22:31Z</time>
      </trkpt>
      <trkpt lat="44.4286" lon="6.74028">
        <ele>1352.7</ele>
        <time>2021-06-20T15:22:35Z</time>
      </trkpt>
      <trkpt lat="44.42859" lon="6.74032">
        <ele>1353.4</ele>
        <time>2021-06-20T15:22:39Z</time>
      </trkpt>
      <trkpt lat="44.4286" lon="6.7404">
        <ele>1354.3</ele>
        <time>2021-06-20T15:22:43Z</time>
      </trkpt>
      <trkpt lat="44.42862" lon="6.74045">
        <ele>1354.6</ele>
        <time>2021-06-20T15:22:47Z</time>
      </trkpt>
      <trkpt lat="44.42862" lon="6.74052">
        <ele>1355.6</ele>
        <time>2021-06-20T15:22:51Z</time>
      </trkpt>
      <trkpt lat="44.42864" lon="6.74057">
        <ele>1355.8</ele>
        <time>2021-06-20T15:22:55Z</time>
      </trkpt>
      <trkpt lat="44.42866" lon="6.74063">
        <ele>1356.2</ele>
        <time>2021-06-20T15:22:59Z</time>
      </trkpt>
      <trkpt lat="44.42868" lon="6.74069">
        <ele>1356.6</ele>
        <time>2021-06-20T15:23:03Z</time>
      </trkpt>
      <trkpt lat="44.42872" lon="6.74075">
        <ele>1356.5</ele>
        <time>2021-06-20T15:23:07Z</time>
      </trkpt>
      <trkpt lat="44.42875" lon="6.7408">
        <ele>1356.6</ele>
        <time>2021-06-20T15:23:11Z</time>
      </trkpt>
      <trkpt lat="44.42879" lon="6.74085">
        <ele>1356.5</ele>
        <time>2021-06-20T15:23:15Z</time>
      </trkpt>
      <trkpt lat="44.42884" lon="6.74092">
        <ele>1357</ele>
        <time>2021-06-20T15:23:19Z</time>
      </trkpt>
      <trkpt lat="44.42886" lon="6.74098">
        <ele>1357.9</ele>
        <time>2021-06-20T15:23:23Z</time>
      </trkpt>
      <trkpt lat="44.4289" lon="6.74105">
        <ele>1358.5</ele>
        <time>2021-06-20T15:23:27Z</time>
      </trkpt>
      <trkpt lat="44.42894" lon="6.74109">
        <ele>1358.5</ele>
        <time>2021-06-20T15:23:31Z</time>
      </trkpt>
      <trkpt lat="44.42899" lon="6.74117">
        <ele>1359</ele>
        <time>2021-06-20T15:23:35Z</time>
      </trkpt>
      <trkpt lat="44.42897" lon="6.74124">
        <ele>1361</ele>
        <time>2021-06-20T15:23:39Z</time>
      </trkpt>
      <trkpt lat="44.42891" lon="6.74126">
        <ele>1362.9</ele>
        <time>2021-06-20T15:23:43Z</time>
      </trkpt>
      <trkpt lat="44.42887" lon="6.74123">
        <ele>1363.2</ele>
        <time>2021-06-20T15:23:47Z</time>
      </trkpt>
      <trkpt lat="44.42881" lon="6.74122">
        <ele>1364.4</ele>
        <time>2021-06-20T15:23:51Z</time>
      </trkpt>
      <trkpt lat="44.42876" lon="6.74122">
        <ele>1365.6</ele>
        <time>2021-06-20T15:23:55Z</time>
      </trkpt>
      <trkpt lat="44.4287" lon="6.74122">
        <ele>1367</ele>
        <time>2021-06-20T15:23:59Z</time>
      </trkpt>
      <trkpt lat="44.42866" lon="6.74123">
        <ele>1368.2</ele>
        <time>2021-06-20T15:24:03Z</time>
      </trkpt>
      <trkpt lat="44.42861" lon="6.74123">
        <ele>1369.4</ele>
        <time>2021-06-20T15:24:07Z</time>
      </trkpt>
      <trkpt lat="44.42856" lon="6.74124">
        <ele>1370.8</ele>
        <time>2021-06-20T15:24:11Z</time>
      </trkpt>
      <trkpt lat="44.42851" lon="6.74124">
        <ele>1372</ele>
        <time>2021-06-20T15:24:15Z</time>
      </trkpt>
      <trkpt lat="44.42845" lon="6.74127">
        <ele>1374.2</ele>
        <time>2021-06-20T15:24:19Z</time>
      </trkpt>
      <trkpt lat="44.4284" lon="6.74128">
        <ele>1375.6</ele>
        <time>2021-06-20T15:24:23Z</time>
      </trkpt>
      <trkpt lat="44.42835" lon="6.74129">
        <ele>1377.1</ele>
        <time>2021-06-20T15:24:27Z</time>
      </trkpt>
      <trkpt lat="44.42829" lon="6.74129">
        <ele>1378.3</ele>
        <time>2021-06-20T15:24:31Z</time>
      </trkpt>
      <trkpt lat="44.42823" lon="6.74131">
        <ele>1379.9</ele>
        <time>2021-06-20T15:24:35Z</time>
      </trkpt>
      <trkpt lat="44.42818" lon="6.74131">
        <ele>1380.8</ele>
        <time>2021-06-20T15:24:39Z</time>
      </trkpt>
      <trkpt lat="44.42812" lon="6.74129">
        <ele>1381.5</ele>
        <time>2021-06-20T15:24:43Z</time>
      </trkpt>
      <trkpt lat="44.42809" lon="6.74129">
        <ele>1382</ele>
        <time>2021-06-20T15:24:47Z</time>
      </trkpt>
      <trkpt lat="44.42805" lon="6.74125">
        <ele>1381.9</ele>
        <time>2021-06-20T15:24:51Z</time>
      </trkpt>
      <trkpt lat="44.42802" lon="6.7412">
        <ele>1381.5</ele>
        <time>2021-06-20T15:24:55Z</time>
      </trkpt>
      <trkpt lat="44.42795" lon="6.74118">
        <ele>1382.6</ele>
        <time>2021-06-20T15:24:59Z</time>
      </trkpt>
      <trkpt lat="44.42791" lon="6.74116">
        <ele>1383</ele>
        <time>2021-06-20T15:25:03Z</time>
      </trkpt>
      <trkpt lat="44.42787" lon="6.74113">
        <ele>1383.3</ele>
        <time>2021-06-20T15:25:07Z</time>
      </trkpt>
      <trkpt lat="44.42781" lon="6.74109">
        <ele>1384</ele>
        <time>2021-06-20T15:25:11Z</time>
      </trkpt>
      <trkpt lat="44.42776" lon="6.74105">
        <ele>1384.4</ele>
        <time>2021-06-20T15:25:15Z</time>
      </trkpt>
      <trkpt lat="44.42771" lon="6.74101">
        <ele>1385</ele>
        <time>2021-06-20T15:25:19Z</time>
      </trkpt>
      <trkpt lat="44.42766" lon="6.74098">
        <ele>1385.8</ele>
        <time>2021-06-20T15:25:23Z</time>
      </trkpt>
      <trkpt lat="44.42761" lon="6.74094">
        <ele>1386.5</ele>
        <time>2021-06-20T15:25:27Z</time>
      </trkpt>
      <trkpt lat="44.42756" lon="6.74091">
        <ele>1387.3</ele>
        <time>2021-06-20T15:25:31Z</time>
      </trkpt>
      <trkpt lat="44.4275" lon="6.74085">
        <ele>1388.2</ele>
        <time>2021-06-20T15:25:35Z</time>
      </trkpt>
      <trkpt lat="44.42744" lon="6.74081">
        <ele>1387.3</ele>
        <time>2021-06-20T15:25:39Z</time>
      </trkpt>
      <trkpt lat="44.4274" lon="6.74078">
        <ele>1386.4</ele>
        <time>2021-06-20T15:25:43Z</time>
      </trkpt>
      <trkpt lat="44.42735" lon="6.74075">
        <ele>1385.6</ele>
        <time>2021-06-20T15:25:47Z</time>
      </trkpt>
      <trkpt lat="44.42729" lon="6.7407">
        <ele>1384.1</ele>
        <time>2021-06-20T15:25:51Z</time>
      </trkpt>
      <trkpt lat="44.42721" lon="6.74068">
        <ele>1383.4</ele>
        <time>2021-06-20T15:25:55Z</time>
      </trkpt>
      <trkpt lat="44.42715" lon="6.74067">
        <ele>1382.9</ele>
        <time>2021-06-20T15:25:59Z</time>
      </trkpt>
      <trkpt lat="44.4271" lon="6.74069">
        <ele>1383.3</ele>
        <time>2021-06-20T15:26:03Z</time>
      </trkpt>
      <trkpt lat="44.42705" lon="6.74072">
        <ele>1383.9</ele>
        <time>2021-06-20T15:26:07Z</time>
      </trkpt>
      <trkpt lat="44.42701" lon="6.74077">
        <ele>1385.1</ele>
        <time>2021-06-20T15:26:11Z</time>
      </trkpt>
      <trkpt lat="44.42697" lon="6.74083">
        <ele>1386.6</ele>
        <time>2021-06-20T15:26:15Z</time>
      </trkpt>
      <trkpt lat="44.42694" lon="6.7409">
        <ele>1387.9</ele>
        <time>2021-06-20T15:26:19Z</time>
      </trkpt>
      <trkpt lat="44.42691" lon="6.74096">
        <ele>1388.9</ele>
        <time>2021-06-20T15:26:23Z</time>
      </trkpt>
      <trkpt lat="44.42686" lon="6.741">
        <ele>1389.6</ele>
        <time>2021-06-20T15:26:27Z</time>
      </trkpt>
      <trkpt lat="44.42681" lon="6.74103">
        <ele>1390.2</ele>
        <time>2021-06-20T15:26:31Z</time>
      </trkpt>
      <trkpt lat="44.42679" lon="6.74108">
        <ele>1391.2</ele>
        <time>2021-06-20T15:26:35Z</time>
      </trkpt>
      <trkpt lat="44.42678" lon="6.74115">
        <ele>1392.6</ele>
        <time>2021-06-20T15:26:39Z</time>
      </trkpt>
      <trkpt lat="44.42676" lon="6.74121">
        <ele>1393.9</ele>
        <time>2021-06-20T15:26:43Z</time>
      </trkpt>
      <trkpt lat="44.4267" lon="6.74123">
        <ele>1394.5</ele>
        <time>2021-06-20T15:26:47Z</time>
      </trkpt>
      <trkpt lat="44.42661" lon="6.74123">
        <ele>1392.5</ele>
        <time>2021-06-20T15:26:51Z</time>
      </trkpt>
      <trkpt lat="44.42652" lon="6.74123">
        <ele>1389.3</ele>
        <time>2021-06-20T15:26:55Z</time>
      </trkpt>
      <trkpt lat="44.42641" lon="6.74127">
        <ele>1386.5</ele>
        <time>2021-06-20T15:26:59Z</time>
      </trkpt>
      <trkpt lat="44.42634" lon="6.74137">
        <ele>1387.1</ele>
        <time>2021-06-20T15:27:03Z</time>
      </trkpt>
      <trkpt lat="44.42627" lon="6.74148">
        <ele>1388.4</ele>
        <time>2021-06-20T15:27:07Z</time>
      </trkpt>
      <trkpt lat="44.42617" lon="6.74159">
        <ele>1389.4</ele>
        <time>2021-06-20T15:27:11Z</time>
      </trkpt>
      <trkpt lat="44.42611" lon="6.74164">
        <ele>1389.7</ele>
        <time>2021-06-20T15:27:15Z</time>
      </trkpt>
      <trkpt lat="44.42603" lon="6.74168">
        <ele>1389.3</ele>
        <time>2021-06-20T15:27:19Z</time>
      </trkpt>
      <trkpt lat="44.42595" lon="6.74169">
        <ele>1387.8</ele>
        <time>2021-06-20T15:27:23Z</time>
      </trkpt>
      <trkpt lat="44.4259" lon="6.74175">
        <ele>1389.4</ele>
        <time>2021-06-20T15:27:27Z</time>
      </trkpt>
      <trkpt lat="44.4258" lon="6.74185">
        <ele>1390.4</ele>
        <time>2021-06-20T15:27:31Z</time>
      </trkpt>
      <trkpt lat="44.4257" lon="6.74195">
        <ele>1388.7</ele>
        <time>2021-06-20T15:27:35Z</time>
      </trkpt>
      <trkpt lat="44.42561" lon="6.74199">
        <ele>1385</ele>
        <time>2021-06-20T15:27:39Z</time>
      </trkpt>
      <trkpt lat="44.4255" lon="6.74206">
        <ele>1381.7</ele>
        <time>2021-06-20T15:27:43Z</time>
      </trkpt>
      <trkpt lat="44.42541" lon="6.7421">
        <ele>1378.2</ele>
        <time>2021-06-20T15:27:47Z</time>
      </trkpt>
      <trkpt lat="44.42536" lon="6.74216">
        <ele>1378.4</ele>
        <time>2021-06-20T15:27:51Z</time>
      </trkpt>
      <trkpt lat="44.42535" lon="6.7422">
        <ele>1380</ele>
        <time>2021-06-20T15:27:55Z</time>
      </trkpt>
      <trkpt lat="44.42535" lon="6.74222">
        <ele>1381.1</ele>
        <time>2021-06-20T15:28:03Z</time>
      </trkpt>
      <trkpt lat="44.42532" lon="6.74225">
        <ele>1380.9</ele>
        <time>2021-06-20T15:28:07Z</time>
      </trkpt>
      <trkpt lat="44.4253" lon="6.7423">
        <ele>1382.5</ele>
        <time>2021-06-20T15:28:11Z</time>
      </trkpt>
      <trkpt lat="44.42526" lon="6.74233">
        <ele>1381.9</ele>
        <time>2021-06-20T15:28:15Z</time>
      </trkpt>
      <trkpt lat="44.42521" lon="6.74236">
        <ele>1380.7</ele>
        <time>2021-06-20T15:28:19Z</time>
      </trkpt>
      <trkpt lat="44.42515" lon="6.74238">
        <ele>1378.4</ele>
        <time>2021-06-20T15:28:23Z</time>
      </trkpt>
      <trkpt lat="44.42511" lon="6.74242">
        <ele>1378.4</ele>
        <time>2021-06-20T15:28:27Z</time>
      </trkpt>
      <trkpt lat="44.42507" lon="6.74245">
        <ele>1377.9</ele>
        <time>2021-06-20T15:28:39Z</time>
      </trkpt>
      <trkpt lat="44.42501" lon="6.74249">
        <ele>1377</ele>
        <time>2021-06-20T15:28:43Z</time>
      </trkpt>
      <trkpt lat="44.42492" lon="6.74255">
        <ele>1376</ele>
        <time>2021-06-20T15:28:47Z</time>
      </trkpt>
      <trkpt lat="44.42485" lon="6.7426">
        <ele>1375.3</ele>
        <time>2021-06-20T15:28:51Z</time>
      </trkpt>
      <trkpt lat="44.42479" lon="6.74269">
        <ele>1377.3</ele>
        <time>2021-06-20T15:28:55Z</time>
      </trkpt>
      <trkpt lat="44.42471" lon="6.74278">
        <ele>1377.9</ele>
        <time>2021-06-20T15:28:59Z</time>
      </trkpt>
      <trkpt lat="44.42466" lon="6.74283">
        <ele>1377.8</ele>
        <time>2021-06-20T15:29:03Z</time>
      </trkpt>
      <trkpt lat="44.42452" lon="6.74293">
        <ele>1375</ele>
        <time>2021-06-20T15:29:07Z</time>
      </trkpt>
      <trkpt lat="44.42436" lon="6.74308">
        <ele>1372.8</ele>
        <time>2021-06-20T15:29:11Z</time>
      </trkpt>
      <trkpt lat="44.42421" lon="6.74325">
        <ele>1371.2</ele>
        <time>2021-06-20T15:29:15Z</time>
      </trkpt>
      <trkpt lat="44.42405" lon="6.74345">
        <ele>1370.7</ele>
        <time>2021-06-20T15:29:19Z</time>
      </trkpt>
      <trkpt lat="44.42397" lon="6.74356">
        <ele>1371.3</ele>
        <time>2021-06-20T15:29:23Z</time>
      </trkpt>
      <trkpt lat="44.42389" lon="6.74364">
        <ele>1370.5</ele>
        <time>2021-06-20T15:29:27Z</time>
      </trkpt>
      <trkpt lat="44.42374" lon="6.74378">
        <ele>1368.4</ele>
        <time>2021-06-20T15:29:31Z</time>
      </trkpt>
      <trkpt lat="44.42368" lon="6.74381">
        <ele>1366.3</ele>
        <time>2021-06-20T15:29:35Z</time>
      </trkpt>
      <trkpt lat="44.42359" lon="6.74387">
        <ele>1363.9</ele>
        <time>2021-06-20T15:29:43Z</time>
      </trkpt>
      <trkpt lat="44.42355" lon="6.74385">
        <ele>1360.5</ele>
        <time>2021-06-20T15:29:47Z</time>
      </trkpt>
      <trkpt lat="44.4235" lon="6.74386">
        <ele>1358.1</ele>
        <time>2021-06-20T15:29:51Z</time>
      </trkpt>
      <trkpt lat="44.42341" lon="6.74383">
        <ele>1351.3</ele>
        <time>2021-06-20T15:29:55Z</time>
      </trkpt>
      <trkpt lat="44.42328" lon="6.74385">
        <ele>1345.9</ele>
        <time>2021-06-20T15:29:59Z</time>
      </trkpt>
      <trkpt lat="44.42316" lon="6.744">
        <ele>1348.6</ele>
        <time>2021-06-20T15:30:03Z</time>
      </trkpt>
      <trkpt lat="44.423" lon="6.74405">
        <ele>1344.8</ele>
        <time>2021-06-20T15:30:07Z</time>
      </trkpt>
      <trkpt lat="44.42285" lon="6.74405">
        <ele>1339.1</ele>
        <time>2021-06-20T15:30:11Z</time>
      </trkpt>
      <trkpt lat="44.4227" lon="6.74403">
        <ele>1332.6</ele>
        <time>2021-06-20T15:30:15Z</time>
      </trkpt>
      <trkpt lat="44.42263" lon="6.7441">
        <ele>1332.6</ele>
        <time>2021-06-20T15:30:19Z</time>
      </trkpt>
      <trkpt lat="44.42257" lon="6.74414">
        <ele>1331.8</ele>
        <time>2021-06-20T15:30:23Z</time>
      </trkpt>
      <trkpt lat="44.42252" lon="6.74417">
        <ele>1330.9</ele>
        <time>2021-06-20T15:30:27Z</time>
      </trkpt>
      <trkpt lat="44.42247" lon="6.74422">
        <ele>1331.8</ele>
        <time>2021-06-20T15:30:31Z</time>
      </trkpt>
      <trkpt lat="44.42242" lon="6.74428">
        <ele>1333.6</ele>
        <time>2021-06-20T15:30:35Z</time>
      </trkpt>
      <trkpt lat="44.42236" lon="6.74433">
        <ele>1334.6</ele>
        <time>2021-06-20T15:30:39Z</time>
      </trkpt>
      <trkpt lat="44.42231" lon="6.74439">
        <ele>1336.3</ele>
        <time>2021-06-20T15:30:43Z</time>
      </trkpt>
      <trkpt lat="44.42227" lon="6.74446">
        <ele>1338.6</ele>
        <time>2021-06-20T15:30:47Z</time>
      </trkpt>
      <trkpt lat="44.42223" lon="6.74452">
        <ele>1340.4</ele>
        <time>2021-06-20T15:30:51Z</time>
      </trkpt>
      <trkpt lat="44.42218" lon="6.74458">
        <ele>1341.9</ele>
        <time>2021-06-20T15:30:55Z</time>
      </trkpt>
      <trkpt lat="44.42213" lon="6.74464">
        <ele>1343.5</ele>
        <time>2021-06-20T15:30:59Z</time>
      </trkpt>
      <trkpt lat="44.42208" lon="6.7447">
        <ele>1345</ele>
        <time>2021-06-20T15:31:03Z</time>
      </trkpt>
      <trkpt lat="44.42202" lon="6.74476">
        <ele>1346.2</ele>
        <time>2021-06-20T15:31:07Z</time>
      </trkpt>
      <trkpt lat="44.42197" lon="6.74482">
        <ele>1347.6</ele>
        <time>2021-06-20T15:31:11Z</time>
      </trkpt>
      <trkpt lat="44.4219" lon="6.74486">
        <ele>1347.7</ele>
        <time>2021-06-20T15:31:15Z</time>
      </trkpt>
      <trkpt lat="44.42183" lon="6.74489">
        <ele>1347.3</ele>
        <time>2021-06-20T15:31:19Z</time>
      </trkpt>
      <trkpt lat="44.42178" lon="6.74489">
        <ele>1346.2</ele>
        <time>2021-06-20T15:31:23Z</time>
      </trkpt>
      <trkpt lat="44.4217" lon="6.74491">
        <ele>1345.1</ele>
        <time>2021-06-20T15:31:27Z</time>
      </trkpt>
      <trkpt lat="44.42163" lon="6.74492">
        <ele>1344.3</ele>
        <time>2021-06-20T15:31:31Z</time>
      </trkpt>
      <trkpt lat="44.42157" lon="6.74493">
        <ele>1344.1</ele>
        <time>2021-06-20T15:31:35Z</time>
      </trkpt>
      <trkpt lat="44.42148" lon="6.74498">
        <ele>1345.1</ele>
        <time>2021-06-20T15:31:39Z</time>
      </trkpt>
      <trkpt lat="44.42142" lon="6.74501">
        <ele>1345.8</ele>
        <time>2021-06-20T15:31:43Z</time>
      </trkpt>
      <trkpt lat="44.42137" lon="6.74507">
        <ele>1347.9</ele>
        <time>2021-06-20T15:31:47Z</time>
      </trkpt>
      <trkpt lat="44.42131" lon="6.74511">
        <ele>1349</ele>
        <time>2021-06-20T15:31:51Z</time>
      </trkpt>
      <trkpt lat="44.42124" lon="6.74515">
        <ele>1350</ele>
        <time>2021-06-20T15:31:55Z</time>
      </trkpt>
      <trkpt lat="44.42117" lon="6.74517">
        <ele>1350</ele>
        <time>2021-06-20T15:31:59Z</time>
      </trkpt>
      <trkpt lat="44.42113" lon="6.74524">
        <ele>1352.6</ele>
        <time>2021-06-20T15:32:03Z</time>
      </trkpt>
      <trkpt lat="44.42115" lon="6.74528">
        <ele>1354.6</ele>
        <time>2021-06-20T15:32:07Z</time>
      </trkpt>
      <trkpt lat="44.4212" lon="6.74525">
        <ele>1353.9</ele>
        <time>2021-06-20T15:32:11Z</time>
      </trkpt>
      <trkpt lat="44.42127" lon="6.74523">
        <ele>1353.8</ele>
        <time>2021-06-20T15:32:15Z</time>
      </trkpt>
      <trkpt lat="44.42132" lon="6.74522">
        <ele>1354</ele>
        <time>2021-06-20T15:32:19Z</time>
      </trkpt>
      <trkpt lat="44.42138" lon="6.74523">
        <ele>1355.1</ele>
        <time>2021-06-20T15:32:23Z</time>
      </trkpt>
      <trkpt lat="44.42144" lon="6.74524">
        <ele>1356.3</ele>
        <time>2021-06-20T15:32:27Z</time>
      </trkpt>
      <trkpt lat="44.42148" lon="6.74524">
        <ele>1356.7</ele>
        <time>2021-06-20T15:32:31Z</time>
      </trkpt>
      <trkpt lat="44.42154" lon="6.74527">
        <ele>1358.8</ele>
        <time>2021-06-20T15:32:35Z</time>
      </trkpt>
      <trkpt lat="44.42158" lon="6.74529">
        <ele>1360.2</ele>
        <time>2021-06-20T15:32:39Z</time>
      </trkpt>
      <trkpt lat="44.42162" lon="6.74532">
        <ele>1362</ele>
        <time>2021-06-20T15:32:43Z</time>
      </trkpt>
      <trkpt lat="44.42166" lon="6.74536">
        <ele>1364.3</ele>
        <time>2021-06-20T15:32:47Z</time>
      </trkpt>
      <trkpt lat="44.42166" lon="6.7454">
        <ele>1366.2</ele>
        <time>2021-06-20T15:32:51Z</time>
      </trkpt>
      <trkpt lat="44.42162" lon="6.74542">
        <ele>1366.6</ele>
        <time>2021-06-20T15:32:55Z</time>
      </trkpt>
      <trkpt lat="44.42156" lon="6.74541">
        <ele>1365.4</ele>
        <time>2021-06-20T15:32:59Z</time>
      </trkpt>
      <trkpt lat="44.42147" lon="6.74538">
        <ele>1362.9</ele>
        <time>2021-06-20T15:33:03Z</time>
      </trkpt>
      <trkpt lat="44.42137" lon="6.74539">
        <ele>1362.1</ele>
        <time>2021-06-20T15:33:07Z</time>
      </trkpt>
      <trkpt lat="44.42126" lon="6.74542">
        <ele>1362</ele>
        <time>2021-06-20T15:33:11Z</time>
      </trkpt>
      <trkpt lat="44.42114" lon="6.74547">
        <ele>1362.7</ele>
        <time>2021-06-20T15:33:15Z</time>
      </trkpt>
      <trkpt lat="44.421" lon="6.74551">
        <ele>1362.6</ele>
        <time>2021-06-20T15:33:19Z</time>
      </trkpt>
      <trkpt lat="44.42086" lon="6.74556">
        <ele>1362.9</ele>
        <time>2021-06-20T15:33:23Z</time>
      </trkpt>
      <trkpt lat="44.42073" lon="6.74562">
        <ele>1362.8</ele>
        <time>2021-06-20T15:33:27Z</time>
      </trkpt>
      <trkpt lat="44.42058" lon="6.74568">
        <ele>1362</ele>
        <time>2021-06-20T15:33:31Z</time>
      </trkpt>
      <trkpt lat="44.42045" lon="6.74575">
        <ele>1361.9</ele>
        <time>2021-06-20T15:33:35Z</time>
      </trkpt>
      <trkpt lat="44.42035" lon="6.74584">
        <ele>1363.2</ele>
        <time>2021-06-20T15:33:39Z</time>
      </trkpt>
      <trkpt lat="44.42025" lon="6.74595">
        <ele>1364.7</ele>
        <time>2021-06-20T15:33:43Z</time>
      </trkpt>
      <trkpt lat="44.42017" lon="6.74604">
        <ele>1365.9</ele>
        <time>2021-06-20T15:33:47Z</time>
      </trkpt>
      <trkpt lat="44.42008" lon="6.74613">
        <ele>1366.8</ele>
        <time>2021-06-20T15:33:51Z</time>
      </trkpt>
      <trkpt lat="44.42" lon="6.7462">
        <ele>1367.3</ele>
        <time>2021-06-20T15:33:55Z</time>
      </trkpt>
      <trkpt lat="44.41991" lon="6.74629">
        <ele>1368.7</ele>
        <time>2021-06-20T15:33:59Z</time>
      </trkpt>
      <trkpt lat="44.41983" lon="6.74639">
        <ele>1370.6</ele>
        <time>2021-06-20T15:34:03Z</time>
      </trkpt>
      <trkpt lat="44.41977" lon="6.74648">
        <ele>1372.4</ele>
        <time>2021-06-20T15:34:07Z</time>
      </trkpt>
      <trkpt lat="44.41969" lon="6.74654">
        <ele>1372.9</ele>
        <time>2021-06-20T15:34:11Z</time>
      </trkpt>
      <trkpt lat="44.41961" lon="6.74659">
        <ele>1373</ele>
        <time>2021-06-20T15:34:15Z</time>
      </trkpt>
      <trkpt lat="44.41954" lon="6.74665">
        <ele>1373.6</ele>
        <time>2021-06-20T15:34:19Z</time>
      </trkpt>
      <trkpt lat="44.41951" lon="6.74673">
        <ele>1375.6</ele>
        <time>2021-06-20T15:34:23Z</time>
      </trkpt>
      <trkpt lat="44.41947" lon="6.74681">
        <ele>1377.2</ele>
        <time>2021-06-20T15:34:27Z</time>
      </trkpt>
      <trkpt lat="44.41941" lon="6.74687">
        <ele>1377.9</ele>
        <time>2021-06-20T15:34:31Z</time>
      </trkpt>
      <trkpt lat="44.41934" lon="6.74692">
        <ele>1378.1</ele>
        <time>2021-06-20T15:34:35Z</time>
      </trkpt>
      <trkpt lat="44.41926" lon="6.74696">
        <ele>1377.7</ele>
        <time>2021-06-20T15:34:39Z</time>
      </trkpt>
      <trkpt lat="44.41919" lon="6.74696">
        <ele>1376.3</ele>
        <time>2021-06-20T15:34:43Z</time>
      </trkpt>
      <trkpt lat="44.41911" lon="6.747">
        <ele>1376.7</ele>
        <time>2021-06-20T15:34:47Z</time>
      </trkpt>
      <trkpt lat="44.41901" lon="6.74705">
        <ele>1377.5</ele>
        <time>2021-06-20T15:34:51Z</time>
      </trkpt>
      <trkpt lat="44.41891" lon="6.7471">
        <ele>1378.3</ele>
        <time>2021-06-20T15:34:55Z</time>
      </trkpt>
      <trkpt lat="44.4188" lon="6.74713">
        <ele>1378.3</ele>
        <time>2021-06-20T15:34:59Z</time>
      </trkpt>
      <trkpt lat="44.41861" lon="6.74712">
        <ele>1376.7</ele>
        <time>2021-06-20T15:35:03Z</time>
      </trkpt>
      <trkpt lat="44.41834" lon="6.74714">
        <ele>1375.1</ele>
        <time>2021-06-20T15:35:07Z</time>
      </trkpt>
      <trkpt lat="44.41799" lon="6.74699">
        <ele>1368</ele>
        <time>2021-06-20T15:35:11Z</time>
      </trkpt>
      <trkpt lat="44.41763" lon="6.74696">
        <ele>1363.1</ele>
        <time>2021-06-20T15:35:15Z</time>
      </trkpt>
      <trkpt lat="44.41738" lon="6.74685">
        <ele>1355.9</ele>
        <time>2021-06-20T15:35:19Z</time>
      </trkpt>
      <trkpt lat="44.41741" lon="6.74669">
        <ele>1354.4</ele>
        <time>2021-06-20T15:35:23Z</time>
      </trkpt>
      <trkpt lat="44.41757" lon="6.7465">
        <ele>1353.9</ele>
        <time>2021-06-20T15:35:27Z</time>
      </trkpt>
      <trkpt lat="44.41765" lon="6.74625">
        <ele>1348.8</ele>
        <time>2021-06-20T15:35:31Z</time>
      </trkpt>
      <trkpt lat="44.41747" lon="6.74625">
        <ele>1346.5</ele>
        <time>2021-06-20T15:35:35Z</time>
      </trkpt>
      <trkpt lat="44.41719" lon="6.7462">
        <ele>1336.5</ele>
        <time>2021-06-20T15:35:39Z</time>
      </trkpt>
      <trkpt lat="44.41699" lon="6.74635">
        <ele>1333.5</ele>
        <time>2021-06-20T15:35:43Z</time>
      </trkpt>
      <trkpt lat="44.41681" lon="6.74657">
        <ele>1332.5</ele>
        <time>2021-06-20T15:35:47Z</time>
      </trkpt>
      <trkpt lat="44.41662" lon="6.74677">
        <ele>1328.8</ele>
        <time>2021-06-20T15:35:51Z</time>
      </trkpt>
      <trkpt lat="44.41649" lon="6.74709">
        <ele>1325.9</ele>
        <time>2021-06-20T15:35:55Z</time>
      </trkpt>
      <trkpt lat="44.41636" lon="6.74741">
        <ele>1322.9</ele>
        <time>2021-06-20T15:35:59Z</time>
      </trkpt>
      <trkpt lat="44.41631" lon="6.74784">
        <ele>1322.2</ele>
        <time>2021-06-20T15:36:03Z</time>
      </trkpt>
      <trkpt lat="44.41627" lon="6.74828">
        <ele>1321</ele>
        <time>2021-06-20T15:36:07Z</time>
      </trkpt>
      <trkpt lat="44.41628" lon="6.74871">
        <ele>1320.3</ele>
        <time>2021-06-20T15:36:11Z</time>
      </trkpt>
      <trkpt lat="44.41622" lon="6.74914">
        <ele>1315.5</ele>
        <time>2021-06-20T15:36:15Z</time>
      </trkpt>
      <trkpt lat="44.41612" lon="6.74944">
        <ele>1309.5</ele>
        <time>2021-06-20T15:36:19Z</time>
      </trkpt>
      <trkpt lat="44.41612" lon="6.74927">
        <ele>1309.9</ele>
        <time>2021-06-20T15:36:23Z</time>
      </trkpt>
      <trkpt lat="44.41609" lon="6.74892">
        <ele>1309.2</ele>
        <time>2021-06-20T15:36:27Z</time>
      </trkpt>
      <trkpt lat="44.41596" lon="6.74847">
        <ele>1303</ele>
        <time>2021-06-20T15:36:31Z</time>
      </trkpt>
      <trkpt lat="44.41589" lon="6.74809">
        <ele>1298.9</ele>
        <time>2021-06-20T15:36:35Z</time>
      </trkpt>
      <trkpt lat="44.41581" lon="6.7482">
        <ele>1295</ele>
        <time>2021-06-20T15:36:39Z</time>
      </trkpt>
      <trkpt lat="44.41581" lon="6.74856">
        <ele>1294.9</ele>
        <time>2021-06-20T15:36:43Z</time>
      </trkpt>
      <trkpt lat="44.41569" lon="6.74893">
        <ele>1290.6</ele>
        <time>2021-06-20T15:36:47Z</time>
      </trkpt>
      <trkpt lat="44.41549" lon="6.74908">
        <ele>1284.2</ele>
        <time>2021-06-20T15:36:51Z</time>
      </trkpt>
      <trkpt lat="44.41535" lon="6.74937">
        <ele>1279.9</ele>
        <time>2021-06-20T15:36:55Z</time>
      </trkpt>
      <trkpt lat="44.41533" lon="6.74977">
        <ele>1279.2</ele>
        <time>2021-06-20T15:36:59Z</time>
      </trkpt>
      <trkpt lat="44.41534" lon="6.75004">
        <ele>1279.5</ele>
        <time>2021-06-20T15:37:03Z</time>
      </trkpt>
      <trkpt lat="44.41533" lon="6.75017">
        <ele>1279.7</ele>
        <time>2021-06-20T15:37:07Z</time>
      </trkpt>
      <trkpt lat="44.4153" lon="6.75029">
        <ele>1279.2</ele>
        <time>2021-06-20T15:37:11Z</time>
      </trkpt>
      <trkpt lat="44.41534" lon="6.75041">
        <ele>1280.8</ele>
        <time>2021-06-20T15:37:15Z</time>
      </trkpt>
      <trkpt lat="44.4154" lon="6.75051">
        <ele>1282.9</ele>
        <time>2021-06-20T15:37:19Z</time>
      </trkpt>
      <trkpt lat="44.41547" lon="6.75059">
        <ele>1285.2</ele>
        <time>2021-06-20T15:37:23Z</time>
      </trkpt>
      <trkpt lat="44.41552" lon="6.75072">
        <ele>1287.2</ele>
        <time>2021-06-20T15:37:27Z</time>
      </trkpt>
      <trkpt lat="44.41552" lon="6.75085">
        <ele>1287.7</ele>
        <time>2021-06-20T15:37:31Z</time>
      </trkpt>
      <trkpt lat="44.41546" lon="6.75096">
        <ele>1286.5</ele>
        <time>2021-06-20T15:37:35Z</time>
      </trkpt>
      <trkpt lat="44.41536" lon="6.75106">
        <ele>1284.3</ele>
        <time>2021-06-20T15:37:39Z</time>
      </trkpt>
      <trkpt lat="44.41526" lon="6.75114">
        <ele>1282.1</ele>
        <time>2021-06-20T15:37:43Z</time>
      </trkpt>
      <trkpt lat="44.41516" lon="6.75122">
        <ele>1280</ele>
        <time>2021-06-20T15:37:47Z</time>
      </trkpt>
      <trkpt lat="44.41506" lon="6.75129">
        <ele>1277.9</ele>
        <time>2021-06-20T15:37:51Z</time>
      </trkpt>
      <trkpt lat="44.41495" lon="6.75132">
        <ele>1277.1</ele>
        <time>2021-06-20T15:37:55Z</time>
      </trkpt>
      <trkpt lat="44.41485" lon="6.75134">
        <ele>1278</ele>
        <time>2021-06-20T15:37:59Z</time>
      </trkpt>
      <trkpt lat="44.41475" lon="6.75138">
        <ele>1279.2</ele>
        <time>2021-06-20T15:38:03Z</time>
      </trkpt>
      <trkpt lat="44.41466" lon="6.75146">
        <ele>1280.9</ele>
        <time>2021-06-20T15:38:07Z</time>
      </trkpt>
      <trkpt lat="44.41461" lon="6.75157">
        <ele>1282.6</ele>
        <time>2021-06-20T15:38:11Z</time>
      </trkpt>
      <trkpt lat="44.41461" lon="6.75171">
        <ele>1284.3</ele>
        <time>2021-06-20T15:38:15Z</time>
      </trkpt>
      <trkpt lat="44.41465" lon="6.75184">
        <ele>1285.5</ele>
        <time>2021-06-20T15:38:19Z</time>
      </trkpt>
      <trkpt lat="44.4147" lon="6.75195">
        <ele>1286.1</ele>
        <time>2021-06-20T15:38:23Z</time>
      </trkpt>
      <trkpt lat="44.41476" lon="6.75206">
        <ele>1286.5</ele>
        <time>2021-06-20T15:38:27Z</time>
      </trkpt>
      <trkpt lat="44.41481" lon="6.75218">
        <ele>1286.9</ele>
        <time>2021-06-20T15:38:31Z</time>
      </trkpt>
      <trkpt lat="44.41487" lon="6.75229">
        <ele>1286.9</ele>
        <time>2021-06-20T15:38:35Z</time>
      </trkpt>
      <trkpt lat="44.41492" lon="6.75241">
        <ele>1287</ele>
        <time>2021-06-20T15:38:39Z</time>
      </trkpt>
      <trkpt lat="44.41497" lon="6.75253">
        <ele>1287</ele>
        <time>2021-06-20T15:38:43Z</time>
      </trkpt>
      <trkpt lat="44.41499" lon="6.75267">
        <ele>1288.2</ele>
        <time>2021-06-20T15:38:47Z</time>
      </trkpt>
      <trkpt lat="44.41495" lon="6.75277">
        <ele>1290.3</ele>
        <time>2021-06-20T15:38:51Z</time>
      </trkpt>
      <trkpt lat="44.41487" lon="6.7528">
        <ele>1292.2</ele>
        <time>2021-06-20T15:38:55Z</time>
      </trkpt>
      <trkpt lat="44.41479" lon="6.75276">
        <ele>1293.4</ele>
        <time>2021-06-20T15:38:59Z</time>
      </trkpt>
      <trkpt lat="44.41474" lon="6.75266">
        <ele>1293.4</ele>
        <time>2021-06-20T15:39:03Z</time>
      </trkpt>
      <trkpt lat="44.41468" lon="6.75254">
        <ele>1293.3</ele>
        <time>2021-06-20T15:39:07Z</time>
      </trkpt>
      <trkpt lat="44.41463" lon="6.75243">
        <ele>1293.1</ele>
        <time>2021-06-20T15:39:11Z</time>
      </trkpt>
      <trkpt lat="44.41458" lon="6.75232">
        <ele>1292.7</ele>
        <time>2021-06-20T15:39:15Z</time>
      </trkpt>
      <trkpt lat="44.41452" lon="6.75222">
        <ele>1292.4</ele>
        <time>2021-06-20T15:39:19Z</time>
      </trkpt>
      <trkpt lat="44.41446" lon="6.75212">
        <ele>1292</ele>
        <time>2021-06-20T15:39:23Z</time>
      </trkpt>
      <trkpt lat="44.41438" lon="6.75204">
        <ele>1292</ele>
        <time>2021-06-20T15:39:27Z</time>
      </trkpt>
      <trkpt lat="44.4143" lon="6.75197">
        <ele>1292</ele>
        <time>2021-06-20T15:39:31Z</time>
      </trkpt>
      <trkpt lat="44.41421" lon="6.7519">
        <ele>1291.9</ele>
        <time>2021-06-20T15:39:35Z</time>
      </trkpt>
      <trkpt lat="44.41412" lon="6.75183">
        <ele>1292.2</ele>
        <time>2021-06-20T15:39:39Z</time>
      </trkpt>
      <trkpt lat="44.41403" lon="6.75177">
        <ele>1293</ele>
        <time>2021-06-20T15:39:43Z</time>
      </trkpt>
      <trkpt lat="44.41394" lon="6.75172">
        <ele>1294.1</ele>
        <time>2021-06-20T15:39:47Z</time>
      </trkpt>
      <trkpt lat="44.41385" lon="6.75166">
        <ele>1295.1</ele>
        <time>2021-06-20T15:39:51Z</time>
      </trkpt>
      <trkpt lat="44.41377" lon="6.7516">
        <ele>1296</ele>
        <time>2021-06-20T15:39:55Z</time>
      </trkpt>
      <trkpt lat="44.41368" lon="6.75154">
        <ele>1297.2</ele>
        <time>2021-06-20T15:39:59Z</time>
      </trkpt>
      <trkpt lat="44.4136" lon="6.75149">
        <ele>1298.2</ele>
        <time>2021-06-20T15:40:03Z</time>
      </trkpt>
      <trkpt lat="44.41351" lon="6.75144">
        <ele>1299.5</ele>
        <time>2021-06-20T15:40:07Z</time>
      </trkpt>
      <trkpt lat="44.41344" lon="6.75138">
        <ele>1300.1</ele>
        <time>2021-06-20T15:40:11Z</time>
      </trkpt>
      <trkpt lat="44.41335" lon="6.75133">
        <ele>1301.4</ele>
        <time>2021-06-20T15:40:15Z</time>
      </trkpt>
      <trkpt lat="44.41326" lon="6.75127">
        <ele>1303</ele>
        <time>2021-06-20T15:40:19Z</time>
      </trkpt>
      <trkpt lat="44.41318" lon="6.75122">
        <ele>1304.7</ele>
        <time>2021-06-20T15:40:23Z</time>
      </trkpt>
      <trkpt lat="44.41309" lon="6.75116">
        <ele>1306.7</ele>
        <time>2021-06-20T15:40:27Z</time>
      </trkpt>
      <trkpt lat="44.413" lon="6.75111">
        <ele>1309</ele>
        <time>2021-06-20T15:40:31Z</time>
      </trkpt>
      <trkpt lat="44.41291" lon="6.75106">
        <ele>1311.4</ele>
        <time>2021-06-20T15:40:35Z</time>
      </trkpt>
      <trkpt lat="44.41282" lon="6.75105">
        <ele>1314.3</ele>
        <time>2021-06-20T15:40:39Z</time>
      </trkpt>
      <trkpt lat="44.41275" lon="6.75113">
        <ele>1317.1</ele>
        <time>2021-06-20T15:40:43Z</time>
      </trkpt>
      <trkpt lat="44.41273" lon="6.75126">
        <ele>1318.7</ele>
        <time>2021-06-20T15:40:47Z</time>
      </trkpt>
      <trkpt lat="44.41278" lon="6.75137">
        <ele>1318</ele>
        <time>2021-06-20T15:40:51Z</time>
      </trkpt>
      <trkpt lat="44.41286" lon="6.75143">
        <ele>1316.3</ele>
        <time>2021-06-20T15:40:55Z</time>
      </trkpt>
      <trkpt lat="44.41295" lon="6.75145">
        <ele>1314</ele>
        <time>2021-06-20T15:40:59Z</time>
      </trkpt>
      <trkpt lat="44.41303" lon="6.75149">
        <ele>1312.3</ele>
        <time>2021-06-20T15:41:03Z</time>
      </trkpt>
      <trkpt lat="44.41311" lon="6.75154">
        <ele>1310.8</ele>
        <time>2021-06-20T15:41:07Z</time>
      </trkpt>
      <trkpt lat="44.41318" lon="6.75163">
        <ele>1310.2</ele>
        <time>2021-06-20T15:41:11Z</time>
      </trkpt>
      <trkpt lat="44.41324" lon="6.75173">
        <ele>1310.1</ele>
        <time>2021-06-20T15:41:15Z</time>
      </trkpt>
      <trkpt lat="44.41327" lon="6.75184">
        <ele>1311</ele>
        <time>2021-06-20T15:41:19Z</time>
      </trkpt>
      <trkpt lat="44.41329" lon="6.75197">
        <ele>1312.4</ele>
        <time>2021-06-20T15:41:23Z</time>
      </trkpt>
      <trkpt lat="44.41331" lon="6.75209">
        <ele>1313.6</ele>
        <time>2021-06-20T15:41:27Z</time>
      </trkpt>
      <trkpt lat="44.41333" lon="6.75221">
        <ele>1314.9</ele>
        <time>2021-06-20T15:41:31Z</time>
      </trkpt>
      <trkpt lat="44.41336" lon="6.75232">
        <ele>1315.9</ele>
        <time>2021-06-20T15:41:35Z</time>
      </trkpt>
      <trkpt lat="44.41339" lon="6.75242">
        <ele>1316.8</ele>
        <time>2021-06-20T15:41:39Z</time>
      </trkpt>
      <trkpt lat="44.41342" lon="6.75253">
        <ele>1317.7</ele>
        <time>2021-06-20T15:41:43Z</time>
      </trkpt>
      <trkpt lat="44.41345" lon="6.75264">
        <ele>1318.1</ele>
        <time>2021-06-20T15:41:47Z</time>
      </trkpt>
      <trkpt lat="44.4135" lon="6.75274">
        <ele>1318</ele>
        <time>2021-06-20T15:41:51Z</time>
      </trkpt>
      <trkpt lat="44.41353" lon="6.75284">
        <ele>1318.3</ele>
        <time>2021-06-20T15:41:55Z</time>
      </trkpt>
      <trkpt lat="44.41357" lon="6.75294">
        <ele>1318.4</ele>
        <time>2021-06-20T15:41:59Z</time>
      </trkpt>
      <trkpt lat="44.41361" lon="6.75308">
        <ele>1318.9</ele>
        <time>2021-06-20T15:42:03Z</time>
      </trkpt>
      <trkpt lat="44.41363" lon="6.75322">
        <ele>1319.7</ele>
        <time>2021-06-20T15:42:07Z</time>
      </trkpt>
      <trkpt lat="44.41362" lon="6.75336">
        <ele>1321.2</ele>
        <time>2021-06-20T15:42:11Z</time>
      </trkpt>
      <trkpt lat="44.41361" lon="6.75349">
        <ele>1323</ele>
        <time>2021-06-20T15:42:15Z</time>
      </trkpt>
      <trkpt lat="44.41361" lon="6.75362">
        <ele>1324.6</ele>
        <time>2021-06-20T15:42:19Z</time>
      </trkpt>
      <trkpt lat="44.41363" lon="6.75374">
        <ele>1325.7</ele>
        <time>2021-06-20T15:42:23Z</time>
      </trkpt>
      <trkpt lat="44.41364" lon="6.75387">
        <ele>1327.1</ele>
        <time>2021-06-20T15:42:27Z</time>
      </trkpt>
      <trkpt lat="44.41362" lon="6.75398">
        <ele>1328.8</ele>
        <time>2021-06-20T15:42:31Z</time>
      </trkpt>
      <trkpt lat="44.41354" lon="6.75404">
        <ele>1331.2</ele>
        <time>2021-06-20T15:42:35Z</time>
      </trkpt>
      <trkpt lat="44.41346" lon="6.75398">
        <ele>1332</ele>
        <time>2021-06-20T15:42:39Z</time>
      </trkpt>
      <trkpt lat="44.4134" lon="6.75388">
        <ele>1331.9</ele>
        <time>2021-06-20T15:42:43Z</time>
      </trkpt>
      <trkpt lat="44.41336" lon="6.75377">
        <ele>1331.3</ele>
        <time>2021-06-20T15:42:47Z</time>
      </trkpt>
      <trkpt lat="44.4133" lon="6.75367">
        <ele>1331.3</ele>
        <time>2021-06-20T15:42:51Z</time>
      </trkpt>
      <trkpt lat="44.41325" lon="6.75359">
        <ele>1331.6</ele>
        <time>2021-06-20T15:42:55Z</time>
      </trkpt>
      <trkpt lat="44.41319" lon="6.7535">
        <ele>1331.9</ele>
        <time>2021-06-20T15:42:59Z</time>
      </trkpt>
      <trkpt lat="44.41312" lon="6.75342">
        <ele>1332.6</ele>
        <time>2021-06-20T15:43:03Z</time>
      </trkpt>
      <trkpt lat="44.41306" lon="6.75334">
        <ele>1333</ele>
        <time>2021-06-20T15:43:07Z</time>
      </trkpt>
      <trkpt lat="44.413" lon="6.75326">
        <ele>1333.6</ele>
        <time>2021-06-20T15:43:11Z</time>
      </trkpt>
      <trkpt lat="44.41295" lon="6.75316">
        <ele>1333.8</ele>
        <time>2021-06-20T15:43:15Z</time>
      </trkpt>
      <trkpt lat="44.41288" lon="6.75308">
        <ele>1334.6</ele>
        <time>2021-06-20T15:43:19Z</time>
      </trkpt>
      <trkpt lat="44.41282" lon="6.75299">
        <ele>1335</ele>
        <time>2021-06-20T15:43:23Z</time>
      </trkpt>
      <trkpt lat="44.41276" lon="6.75289">
        <ele>1335.3</ele>
        <time>2021-06-20T15:43:27Z</time>
      </trkpt>
      <trkpt lat="44.4127" lon="6.75281">
        <ele>1335.7</ele>
        <time>2021-06-20T15:43:31Z</time>
      </trkpt>
      <trkpt lat="44.41262" lon="6.75275">
        <ele>1336.7</ele>
        <time>2021-06-20T15:43:35Z</time>
      </trkpt>
      <trkpt lat="44.41252" lon="6.75272">
        <ele>1338.5</ele>
        <time>2021-06-20T15:43:39Z</time>
      </trkpt>
      <trkpt lat="44.41245" lon="6.75275">
        <ele>1341</ele>
        <time>2021-06-20T15:43:43Z</time>
      </trkpt>
      <trkpt lat="44.4124" lon="6.75284">
        <ele>1343.7</ele>
        <time>2021-06-20T15:43:47Z</time>
      </trkpt>
      <trkpt lat="44.4124" lon="6.75297">
        <ele>1345.3</ele>
        <time>2021-06-20T15:43:51Z</time>
      </trkpt>
      <trkpt lat="44.41244" lon="6.75309">
        <ele>1345.6</ele>
        <time>2021-06-20T15:43:55Z</time>
      </trkpt>
      <trkpt lat="44.41249" lon="6.7532">
        <ele>1345.5</ele>
        <time>2021-06-20T15:43:59Z</time>
      </trkpt>
      <trkpt lat="44.41255" lon="6.75329">
        <ele>1345.2</ele>
        <time>2021-06-20T15:44:03Z</time>
      </trkpt>
      <trkpt lat="44.41261" lon="6.7534">
        <ele>1345.3</ele>
        <time>2021-06-20T15:44:07Z</time>
      </trkpt>
      <trkpt lat="44.41266" lon="6.75352">
        <ele>1346</ele>
        <time>2021-06-20T15:44:11Z</time>
      </trkpt>
      <trkpt lat="44.4127" lon="6.75364">
        <ele>1346.8</ele>
        <time>2021-06-20T15:44:15Z</time>
      </trkpt>
      <trkpt lat="44.41274" lon="6.75374">
        <ele>1347.4</ele>
        <time>2021-06-20T15:44:19Z</time>
      </trkpt>
      <trkpt lat="44.41278" lon="6.75385">
        <ele>1348</ele>
        <time>2021-06-20T15:44:23Z</time>
      </trkpt>
      <trkpt lat="44.41281" lon="6.75396">
        <ele>1348.9</ele>
        <time>2021-06-20T15:44:27Z</time>
      </trkpt>
      <trkpt lat="44.41284" lon="6.75408">
        <ele>1349.9</ele>
        <time>2021-06-20T15:44:31Z</time>
      </trkpt>
      <trkpt lat="44.41288" lon="6.75419">
        <ele>1350.2</ele>
        <time>2021-06-20T15:44:35Z</time>
      </trkpt>
      <trkpt lat="44.41291" lon="6.75431">
        <ele>1350.3</ele>
        <time>2021-06-20T15:44:39Z</time>
      </trkpt>
      <trkpt lat="44.41294" lon="6.75442">
        <ele>1350.3</ele>
        <time>2021-06-20T15:44:43Z</time>
      </trkpt>
      <trkpt lat="44.41297" lon="6.75453">
        <ele>1350.4</ele>
        <time>2021-06-20T15:44:47Z</time>
      </trkpt>
      <trkpt lat="44.413" lon="6.75464">
        <ele>1350.5</ele>
        <time>2021-06-20T15:44:51Z</time>
      </trkpt>
      <trkpt lat="44.41304" lon="6.75475">
        <ele>1350.3</ele>
        <time>2021-06-20T15:44:55Z</time>
      </trkpt>
      <trkpt lat="44.41306" lon="6.75486">
        <ele>1350.7</ele>
        <time>2021-06-20T15:44:59Z</time>
      </trkpt>
      <trkpt lat="44.41307" lon="6.75498">
        <ele>1351.5</ele>
        <time>2021-06-20T15:45:03Z</time>
      </trkpt>
      <trkpt lat="44.41307" lon="6.7551">
        <ele>1352.1</ele>
        <time>2021-06-20T15:45:07Z</time>
      </trkpt>
      <trkpt lat="44.41306" lon="6.75522">
        <ele>1352.9</ele>
        <time>2021-06-20T15:45:11Z</time>
      </trkpt>
      <trkpt lat="44.41303" lon="6.75533">
        <ele>1354</ele>
        <time>2021-06-20T15:45:15Z</time>
      </trkpt>
      <trkpt lat="44.413" lon="6.75543">
        <ele>1355.2</ele>
        <time>2021-06-20T15:45:19Z</time>
      </trkpt>
      <trkpt lat="44.41297" lon="6.75555">
        <ele>1356.3</ele>
        <time>2021-06-20T15:45:23Z</time>
      </trkpt>
      <trkpt lat="44.41293" lon="6.75566">
        <ele>1357.6</ele>
        <time>2021-06-20T15:45:27Z</time>
      </trkpt>
      <trkpt lat="44.41288" lon="6.75576">
        <ele>1359</ele>
        <time>2021-06-20T15:45:31Z</time>
      </trkpt>
      <trkpt lat="44.41279" lon="6.75583">
        <ele>1361.1</ele>
        <time>2021-06-20T15:45:35Z</time>
      </trkpt>
      <trkpt lat="44.4127" lon="6.75582">
        <ele>1362.9</ele>
        <time>2021-06-20T15:45:39Z</time>
      </trkpt>
      <trkpt lat="44.41264" lon="6.75573">
        <ele>1363.9</ele>
        <time>2021-06-20T15:45:43Z</time>
      </trkpt>
      <trkpt lat="44.41264" lon="6.75561">
        <ele>1363.7</ele>
        <time>2021-06-20T15:45:47Z</time>
      </trkpt>
      <trkpt lat="44.41267" lon="6.75549">
        <ele>1362.8</ele>
        <time>2021-06-20T15:45:51Z</time>
      </trkpt>
      <trkpt lat="44.41269" lon="6.75538">
        <ele>1362.1</ele>
        <time>2021-06-20T15:45:55Z</time>
      </trkpt>
      <trkpt lat="44.41271" lon="6.75527">
        <ele>1361.4</ele>
        <time>2021-06-20T15:45:59Z</time>
      </trkpt>
      <trkpt lat="44.41271" lon="6.75515">
        <ele>1361.1</ele>
        <time>2021-06-20T15:46:03Z</time>
      </trkpt>
      <trkpt lat="44.41271" lon="6.75504">
        <ele>1360.8</ele>
        <time>2021-06-20T15:46:07Z</time>
      </trkpt>
      <trkpt lat="44.41269" lon="6.75492">
        <ele>1360.7</ele>
        <time>2021-06-20T15:46:11Z</time>
      </trkpt>
      <trkpt lat="44.41265" lon="6.75481">
        <ele>1361</ele>
        <time>2021-06-20T15:46:15Z</time>
      </trkpt>
      <trkpt lat="44.41261" lon="6.75471">
        <ele>1361.4</ele>
        <time>2021-06-20T15:46:19Z</time>
      </trkpt>
      <trkpt lat="44.41255" lon="6.75461">
        <ele>1362.3</ele>
        <time>2021-06-20T15:46:23Z</time>
      </trkpt>
      <trkpt lat="44.4125" lon="6.75452">
        <ele>1363.1</ele>
        <time>2021-06-20T15:46:27Z</time>
      </trkpt>
      <trkpt lat="44.41246" lon="6.75443">
        <ele>1363.4</ele>
        <time>2021-06-20T15:46:31Z</time>
      </trkpt>
      <trkpt lat="44.41239" lon="6.75435">
        <ele>1364.4</ele>
        <time>2021-06-20T15:46:35Z</time>
      </trkpt>
      <trkpt lat="44.41234" lon="6.75426">
        <ele>1365</ele>
        <time>2021-06-20T15:46:39Z</time>
      </trkpt>
      <trkpt lat="44.41227" lon="6.75419">
        <ele>1366.1</ele>
        <time>2021-06-20T15:46:43Z</time>
      </trkpt>
      <trkpt lat="44.4122" lon="6.75411">
        <ele>1366.7</ele>
        <time>2021-06-20T15:46:47Z</time>
      </trkpt>
      <trkpt lat="44.41214" lon="6.75403">
        <ele>1366.9</ele>
        <time>2021-06-20T15:46:51Z</time>
      </trkpt>
      <trkpt lat="44.41207" lon="6.75395">
        <ele>1367.5</ele>
        <time>2021-06-20T15:46:55Z</time>
      </trkpt>
      <trkpt lat="44.41201" lon="6.75386">
        <ele>1367.7</ele>
        <time>2021-06-20T15:46:59Z</time>
      </trkpt>
      <trkpt lat="44.41196" lon="6.75377">
        <ele>1367.9</ele>
        <time>2021-06-20T15:47:03Z</time>
      </trkpt>
      <trkpt lat="44.41189" lon="6.75369">
        <ele>1368.7</ele>
        <time>2021-06-20T15:47:07Z</time>
      </trkpt>
      <trkpt lat="44.41183" lon="6.7536">
        <ele>1369.2</ele>
        <time>2021-06-20T15:47:11Z</time>
      </trkpt>
      <trkpt lat="44.41177" lon="6.75351">
        <ele>1369.9</ele>
        <time>2021-06-20T15:47:15Z</time>
      </trkpt>
      <trkpt lat="44.41171" lon="6.75344">
        <ele>1370.8</ele>
        <time>2021-06-20T15:47:19Z</time>
      </trkpt>
      <trkpt lat="44.41165" lon="6.75336">
        <ele>1371.6</ele>
        <time>2021-06-20T15:47:23Z</time>
      </trkpt>
      <trkpt lat="44.41159" lon="6.75327">
        <ele>1372.2</ele>
        <time>2021-06-20T15:47:27Z</time>
      </trkpt>
      <trkpt lat="44.41153" lon="6.75319">
        <ele>1373</ele>
        <time>2021-06-20T15:47:31Z</time>
      </trkpt>
      <trkpt lat="44.41147" lon="6.75312">
        <ele>1373.9</ele>
        <time>2021-06-20T15:47:35Z</time>
      </trkpt>
      <trkpt lat="44.41141" lon="6.75303">
        <ele>1374.8</ele>
        <time>2021-06-20T15:47:39Z</time>
      </trkpt>
      <trkpt lat="44.41135" lon="6.75295">
        <ele>1375.9</ele>
        <time>2021-06-20T15:47:43Z</time>
      </trkpt>
      <trkpt lat="44.41129" lon="6.75286">
        <ele>1377.1</ele>
        <time>2021-06-20T15:47:47Z</time>
      </trkpt>
      <trkpt lat="44.41125" lon="6.75276">
        <ele>1377.8</ele>
        <time>2021-06-20T15:47:51Z</time>
      </trkpt>
      <trkpt lat="44.41124" lon="6.75264">
        <ele>1377.7</ele>
        <time>2021-06-20T15:47:55Z</time>
      </trkpt>
      <trkpt lat="44.41124" lon="6.75252">
        <ele>1377.3</ele>
        <time>2021-06-20T15:47:59Z</time>
      </trkpt>
      <trkpt lat="44.41124" lon="6.7524">
        <ele>1377.6</ele>
        <time>2021-06-20T15:48:03Z</time>
      </trkpt>
      <trkpt lat="44.41124" lon="6.75228">
        <ele>1378.1</ele>
        <time>2021-06-20T15:48:07Z</time>
      </trkpt>
      <trkpt lat="44.41123" lon="6.75216">
        <ele>1378.8</ele>
        <time>2021-06-20T15:48:11Z</time>
      </trkpt>
      <trkpt lat="44.41122" lon="6.75204">
        <ele>1379.5</ele>
        <time>2021-06-20T15:48:15Z</time>
      </trkpt>
      <trkpt lat="44.41122" lon="6.75191">
        <ele>1380</ele>
        <time>2021-06-20T15:48:19Z</time>
      </trkpt>
      <trkpt lat="44.41121" lon="6.75179">
        <ele>1380.7</ele>
        <time>2021-06-20T15:48:23Z</time>
      </trkpt>
      <trkpt lat="44.4112" lon="6.75167">
        <ele>1381.4</ele>
        <time>2021-06-20T15:48:27Z</time>
      </trkpt>
      <trkpt lat="44.41121" lon="6.75154">
        <ele>1381.5</ele>
        <time>2021-06-20T15:48:31Z</time>
      </trkpt>
      <trkpt lat="44.41122" lon="6.75141">
        <ele>1381.6</ele>
        <time>2021-06-20T15:48:35Z</time>
      </trkpt>
      <trkpt lat="44.41124" lon="6.75129">
        <ele>1381.4</ele>
        <time>2021-06-20T15:48:39Z</time>
      </trkpt>
      <trkpt lat="44.41125" lon="6.75116">
        <ele>1381.5</ele>
        <time>2021-06-20T15:48:43Z</time>
      </trkpt>
      <trkpt lat="44.41123" lon="6.75104">
        <ele>1382.3</ele>
        <time>2021-06-20T15:48:47Z</time>
      </trkpt>
      <trkpt lat="44.41116" lon="6.75095">
        <ele>1384.1</ele>
        <time>2021-06-20T15:48:51Z</time>
      </trkpt>
      <trkpt lat="44.41107" lon="6.75094">
        <ele>1386</ele>
        <time>2021-06-20T15:48:55Z</time>
      </trkpt>
      <trkpt lat="44.41099" lon="6.751">
        <ele>1387.7</ele>
        <time>2021-06-20T15:48:59Z</time>
      </trkpt>
      <trkpt lat="44.41095" lon="6.75112">
        <ele>1388.6</ele>
        <time>2021-06-20T15:49:03Z</time>
      </trkpt>
      <trkpt lat="44.41093" lon="6.75124">
        <ele>1389.1</ele>
        <time>2021-06-20T15:49:07Z</time>
      </trkpt>
      <trkpt lat="44.41092" lon="6.75137">
        <ele>1389.4</ele>
        <time>2021-06-20T15:49:11Z</time>
      </trkpt>
      <trkpt lat="44.4109" lon="6.75149">
        <ele>1390</ele>
        <time>2021-06-20T15:49:15Z</time>
      </trkpt>
      <trkpt lat="44.4109" lon="6.75161">
        <ele>1390.1</ele>
        <time>2021-06-20T15:49:19Z</time>
      </trkpt>
      <trkpt lat="44.41089" lon="6.75173">
        <ele>1390.1</ele>
        <time>2021-06-20T15:49:23Z</time>
      </trkpt>
      <trkpt lat="44.4109" lon="6.75186">
        <ele>1389.4</ele>
        <time>2021-06-20T15:49:27Z</time>
      </trkpt>
      <trkpt lat="44.41089" lon="6.75199">
        <ele>1389.2</ele>
        <time>2021-06-20T15:49:31Z</time>
      </trkpt>
      <trkpt lat="44.41088" lon="6.75211">
        <ele>1389.1</ele>
        <time>2021-06-20T15:49:35Z</time>
      </trkpt>
      <trkpt lat="44.41087" lon="6.75223">
        <ele>1388.9</ele>
        <time>2021-06-20T15:49:39Z</time>
      </trkpt>
      <trkpt lat="44.41085" lon="6.75235">
        <ele>1389.1</ele>
        <time>2021-06-20T15:49:43Z</time>
      </trkpt>
      <trkpt lat="44.41082" lon="6.75245">
        <ele>1389.2</ele>
        <time>2021-06-20T15:49:47Z</time>
      </trkpt>
      <trkpt lat="44.41076" lon="6.75256">
        <ele>1389.3</ele>
        <time>2021-06-20T15:49:51Z</time>
      </trkpt>
      <trkpt lat="44.41071" lon="6.75266">
        <ele>1389.6</ele>
        <time>2021-06-20T15:49:55Z</time>
      </trkpt>
      <trkpt lat="44.41065" lon="6.75275">
        <ele>1390.2</ele>
        <time>2021-06-20T15:49:59Z</time>
      </trkpt>
      <trkpt lat="44.41057" lon="6.75284">
        <ele>1391.2</ele>
        <time>2021-06-20T15:50:03Z</time>
      </trkpt>
      <trkpt lat="44.4105" lon="6.75291">
        <ele>1392.3</ele>
        <time>2021-06-20T15:50:07Z</time>
      </trkpt>
      <trkpt lat="44.41043" lon="6.75299">
        <ele>1393.6</ele>
        <time>2021-06-20T15:50:11Z</time>
      </trkpt>
      <trkpt lat="44.41035" lon="6.75306">
        <ele>1395.1</ele>
        <time>2021-06-20T15:50:15Z</time>
      </trkpt>
      <trkpt lat="44.41027" lon="6.75311">
        <ele>1396.7</ele>
        <time>2021-06-20T15:50:19Z</time>
      </trkpt>
      <trkpt lat="44.4102" lon="6.75316">
        <ele>1398.3</ele>
        <time>2021-06-20T15:50:23Z</time>
      </trkpt>
      <trkpt lat="44.41012" lon="6.7532">
        <ele>1400.1</ele>
        <time>2021-06-20T15:50:27Z</time>
      </trkpt>
      <trkpt lat="44.41005" lon="6.75324">
        <ele>1401.8</ele>
        <time>2021-06-20T15:50:31Z</time>
      </trkpt>
      <trkpt lat="44.40998" lon="6.75328">
        <ele>1403.4</ele>
        <time>2021-06-20T15:50:35Z</time>
      </trkpt>
      <trkpt lat="44.4099" lon="6.75332">
        <ele>1404.9</ele>
        <time>2021-06-20T15:50:39Z</time>
      </trkpt>
      <trkpt lat="44.40982" lon="6.75335">
        <ele>1406.3</ele>
        <time>2021-06-20T15:50:43Z</time>
      </trkpt>
      <trkpt lat="44.40975" lon="6.75337">
        <ele>1407.4</ele>
        <time>2021-06-20T15:50:47Z</time>
      </trkpt>
      <trkpt lat="44.40966" lon="6.75339">
        <ele>1408.8</ele>
        <time>2021-06-20T15:50:51Z</time>
      </trkpt>
      <trkpt lat="44.40958" lon="6.7534">
        <ele>1409.9</ele>
        <time>2021-06-20T15:50:55Z</time>
      </trkpt>
      <trkpt lat="44.4095" lon="6.75339">
        <ele>1410.6</ele>
        <time>2021-06-20T15:50:59Z</time>
      </trkpt>
      <trkpt lat="44.40942" lon="6.75339">
        <ele>1411.4</ele>
        <time>2021-06-20T15:51:03Z</time>
      </trkpt>
      <trkpt lat="44.40934" lon="6.75338">
        <ele>1412.1</ele>
        <time>2021-06-20T15:51:07Z</time>
      </trkpt>
      <trkpt lat="44.40926" lon="6.75337">
        <ele>1412.8</ele>
        <time>2021-06-20T15:51:11Z</time>
      </trkpt>
      <trkpt lat="44.40918" lon="6.75337">
        <ele>1413.6</ele>
        <time>2021-06-20T15:51:15Z</time>
      </trkpt>
      <trkpt lat="44.4091" lon="6.75338">
        <ele>1414.1</ele>
        <time>2021-06-20T15:51:19Z</time>
      </trkpt>
      <trkpt lat="44.40902" lon="6.75339">
        <ele>1414.3</ele>
        <time>2021-06-20T15:51:23Z</time>
      </trkpt>
      <trkpt lat="44.40895" lon="6.75341">
        <ele>1414.8</ele>
        <time>2021-06-20T15:51:27Z</time>
      </trkpt>
      <trkpt lat="44.40888" lon="6.75345">
        <ele>1415.6</ele>
        <time>2021-06-20T15:51:31Z</time>
      </trkpt>
      <trkpt lat="44.40881" lon="6.7535">
        <ele>1416.5</ele>
        <time>2021-06-20T15:51:35Z</time>
      </trkpt>
      <trkpt lat="44.40875" lon="6.75357">
        <ele>1417.8</ele>
        <time>2021-06-20T15:51:39Z</time>
      </trkpt>
      <trkpt lat="44.4087" lon="6.75364">
        <ele>1418.9</ele>
        <time>2021-06-20T15:51:43Z</time>
      </trkpt>
      <trkpt lat="44.40864" lon="6.7537">
        <ele>1419.9</ele>
        <time>2021-06-20T15:51:47Z</time>
      </trkpt>
      <trkpt lat="44.40859" lon="6.75375">
        <ele>1420.6</ele>
        <time>2021-06-20T15:51:51Z</time>
      </trkpt>
      <trkpt lat="44.40854" lon="6.75381">
        <ele>1421.5</ele>
        <time>2021-06-20T15:51:55Z</time>
      </trkpt>
      <trkpt lat="44.40848" lon="6.75387">
        <ele>1422.2</ele>
        <time>2021-06-20T15:51:59Z</time>
      </trkpt>
      <trkpt lat="44.40843" lon="6.75393">
        <ele>1423</ele>
        <time>2021-06-20T15:52:03Z</time>
      </trkpt>
      <trkpt lat="44.40837" lon="6.75397">
        <ele>1423.3</ele>
        <time>2021-06-20T15:52:07Z</time>
      </trkpt>
      <trkpt lat="44.4083" lon="6.75401">
        <ele>1423.9</ele>
        <time>2021-06-20T15:52:11Z</time>
      </trkpt>
      <trkpt lat="44.40824" lon="6.75404">
        <ele>1424.7</ele>
        <time>2021-06-20T15:52:15Z</time>
      </trkpt>
      <trkpt lat="44.40817" lon="6.75406">
        <ele>1425.4</ele>
        <time>2021-06-20T15:52:19Z</time>
      </trkpt>
      <trkpt lat="44.4081" lon="6.75407">
        <ele>1425.9</ele>
        <time>2021-06-20T15:52:23Z</time>
      </trkpt>
      <trkpt lat="44.40803" lon="6.75408">
        <ele>1426.4</ele>
        <time>2021-06-20T15:52:27Z</time>
      </trkpt>
      <trkpt lat="44.40795" lon="6.75408">
        <ele>1426.9</ele>
        <time>2021-06-20T15:52:31Z</time>
      </trkpt>
      <trkpt lat="44.40788" lon="6.7541">
        <ele>1427.5</ele>
        <time>2021-06-20T15:52:35Z</time>
      </trkpt>
      <trkpt lat="44.40781" lon="6.75412">
        <ele>1428.1</ele>
        <time>2021-06-20T15:52:39Z</time>
      </trkpt>
      <trkpt lat="44.40773" lon="6.75413">
        <ele>1428.6</ele>
        <time>2021-06-20T15:52:43Z</time>
      </trkpt>
      <trkpt lat="44.40766" lon="6.75415">
        <ele>1429.1</ele>
        <time>2021-06-20T15:52:47Z</time>
      </trkpt>
      <trkpt lat="44.40759" lon="6.75418">
        <ele>1429.6</ele>
        <time>2021-06-20T15:52:51Z</time>
      </trkpt>
      <trkpt lat="44.40752" lon="6.75422">
        <ele>1430</ele>
        <time>2021-06-20T15:52:55Z</time>
      </trkpt>
      <trkpt lat="44.40746" lon="6.75427">
        <ele>1430.2</ele>
        <time>2021-06-20T15:52:59Z</time>
      </trkpt>
      <trkpt lat="44.40741" lon="6.75433">
        <ele>1430.4</ele>
        <time>2021-06-20T15:53:03Z</time>
      </trkpt>
      <trkpt lat="44.40736" lon="6.75439">
        <ele>1430.7</ele>
        <time>2021-06-20T15:53:07Z</time>
      </trkpt>
      <trkpt lat="44.40731" lon="6.75444">
        <ele>1431</ele>
        <time>2021-06-20T15:53:11Z</time>
      </trkpt>
      <trkpt lat="44.40728" lon="6.75449">
        <ele>1431.2</ele>
        <time>2021-06-20T15:53:47Z</time>
      </trkpt>
      <trkpt lat="44.40726" lon="6.75455">
        <ele>1431.6</ele>
        <time>2021-06-20T15:53:51Z</time>
      </trkpt>
      <trkpt lat="44.40724" lon="6.75465">
        <ele>1432.1</ele>
        <time>2021-06-20T15:53:55Z</time>
      </trkpt>
      <trkpt lat="44.40723" lon="6.75474">
        <ele>1432.6</ele>
        <time>2021-06-20T15:53:59Z</time>
      </trkpt>
      <trkpt lat="44.40721" lon="6.75483">
        <ele>1433.2</ele>
        <time>2021-06-20T15:54:03Z</time>
      </trkpt>
      <trkpt lat="44.40719" lon="6.75494">
        <ele>1433.9</ele>
        <time>2021-06-20T15:54:07Z</time>
      </trkpt>
      <trkpt lat="44.40717" lon="6.75503">
        <ele>1434.7</ele>
        <time>2021-06-20T15:54:11Z</time>
      </trkpt>
      <trkpt lat="44.40715" lon="6.75512">
        <ele>1435.9</ele>
        <time>2021-06-20T15:54:15Z</time>
      </trkpt>
      <trkpt lat="44.40712" lon="6.75521">
        <ele>1437.1</ele>
        <time>2021-06-20T15:54:19Z</time>
      </trkpt>
      <trkpt lat="44.40706" lon="6.75529">
        <ele>1438.5</ele>
        <time>2021-06-20T15:54:23Z</time>
      </trkpt>
      <trkpt lat="44.407" lon="6.75534">
        <ele>1439.6</ele>
        <time>2021-06-20T15:54:27Z</time>
      </trkpt>
      <trkpt lat="44.40691" lon="6.75536">
        <ele>1440.6</ele>
        <time>2021-06-20T15:54:31Z</time>
      </trkpt>
      <trkpt lat="44.40683" lon="6.75535">
        <ele>1441.2</ele>
        <time>2021-06-20T15:54:35Z</time>
      </trkpt>
      <trkpt lat="44.40677" lon="6.75532">
        <ele>1441.3</ele>
        <time>2021-06-20T15:54:39Z</time>
      </trkpt>
      <trkpt lat="44.40671" lon="6.75526">
        <ele>1441.1</ele>
        <time>2021-06-20T15:54:43Z</time>
      </trkpt>
      <trkpt lat="44.40666" lon="6.75519">
        <ele>1440.5</ele>
        <time>2021-06-20T15:54:47Z</time>
      </trkpt>
      <trkpt lat="44.40661" lon="6.75511">
        <ele>1439.8</ele>
        <time>2021-06-20T15:54:51Z</time>
      </trkpt>
      <trkpt lat="44.40658" lon="6.75503">
        <ele>1438.9</ele>
        <time>2021-06-20T15:54:55Z</time>
      </trkpt>
      <trkpt lat="44.40653" lon="6.75494">
        <ele>1438.1</ele>
        <time>2021-06-20T15:54:59Z</time>
      </trkpt>
      <trkpt lat="44.40649" lon="6.75485">
        <ele>1437.1</ele>
        <time>2021-06-20T15:55:03Z</time>
      </trkpt>
      <trkpt lat="44.40645" lon="6.75477">
        <ele>1436.2</ele>
        <time>2021-06-20T15:55:07Z</time>
      </trkpt>
      <trkpt lat="44.4064" lon="6.75469">
        <ele>1435.2</ele>
        <time>2021-06-20T15:55:11Z</time>
      </trkpt>
      <trkpt lat="44.40633" lon="6.75463">
        <ele>1434.4</ele>
        <time>2021-06-20T15:55:15Z</time>
      </trkpt>
      <trkpt lat="44.40627" lon="6.75458">
        <ele>1433.7</ele>
        <time>2021-06-20T15:55:19Z</time>
      </trkpt>
      <trkpt lat="44.40619" lon="6.75455">
        <ele>1433.2</ele>
        <time>2021-06-20T15:55:23Z</time>
      </trkpt>
      <trkpt lat="44.40611" lon="6.75454">
        <ele>1433.1</ele>
        <time>2021-06-20T15:55:27Z</time>
      </trkpt>
      <trkpt lat="44.40603" lon="6.75454">
        <ele>1433.1</ele>
        <time>2021-06-20T15:55:31Z</time>
      </trkpt>
      <trkpt lat="44.40595" lon="6.75456">
        <ele>1433.5</ele>
        <time>2021-06-20T15:55:35Z</time>
      </trkpt>
      <trkpt lat="44.40587" lon="6.75461">
        <ele>1434.5</ele>
        <time>2021-06-20T15:55:39Z</time>
      </trkpt>
      <trkpt lat="44.40581" lon="6.75467">
        <ele>1434.8</ele>
        <time>2021-06-20T15:55:43Z</time>
      </trkpt>
      <trkpt lat="44.40576" lon="6.75475">
        <ele>1434.2</ele>
        <time>2021-06-20T15:55:47Z</time>
      </trkpt>
      <trkpt lat="44.4057" lon="6.75483">
        <ele>1433.2</ele>
        <time>2021-06-20T15:55:51Z</time>
      </trkpt>
      <trkpt lat="44.40567" lon="6.75491">
        <ele>1433.5</ele>
        <time>2021-06-20T15:55:55Z</time>
      </trkpt>
      <trkpt lat="44.40564" lon="6.75501">
        <ele>1434.1</ele>
        <time>2021-06-20T15:55:59Z</time>
      </trkpt>
      <trkpt lat="44.40562" lon="6.75512">
        <ele>1434.2</ele>
        <time>2021-06-20T15:56:03Z</time>
      </trkpt>
      <trkpt lat="44.4056" lon="6.75524">
        <ele>1434.6</ele>
        <time>2021-06-20T15:56:07Z</time>
      </trkpt>
      <trkpt lat="44.40558" lon="6.75536">
        <ele>1435</ele>
        <time>2021-06-20T15:56:11Z</time>
      </trkpt>
      <trkpt lat="44.40556" lon="6.75551">
        <ele>1435.7</ele>
        <time>2021-06-20T15:56:15Z</time>
      </trkpt>
      <trkpt lat="44.40556" lon="6.75567">
        <ele>1437.4</ele>
        <time>2021-06-20T15:56:19Z</time>
      </trkpt>
      <trkpt lat="44.40558" lon="6.75583">
        <ele>1439.9</ele>
        <time>2021-06-20T15:56:23Z</time>
      </trkpt>
      <trkpt lat="44.4056" lon="6.75598">
        <ele>1442.2</ele>
        <time>2021-06-20T15:56:27Z</time>
      </trkpt>
      <trkpt lat="44.40561" lon="6.75615">
        <ele>1444.2</ele>
        <time>2021-06-20T15:56:31Z</time>
      </trkpt>
      <trkpt lat="44.40559" lon="6.75631">
        <ele>1445.1</ele>
        <time>2021-06-20T15:56:35Z</time>
      </trkpt>
      <trkpt lat="44.40554" lon="6.75645">
        <ele>1444.9</ele>
        <time>2021-06-20T15:56:39Z</time>
      </trkpt>
      <trkpt lat="44.40547" lon="6.75655">
        <ele>1444</ele>
        <time>2021-06-20T15:56:43Z</time>
      </trkpt>
      <trkpt lat="44.4054" lon="6.75664">
        <ele>1443.2</ele>
        <time>2021-06-20T15:56:47Z</time>
      </trkpt>
      <trkpt lat="44.40532" lon="6.75675">
        <ele>1443.1</ele>
        <time>2021-06-20T15:56:51Z</time>
      </trkpt>
      <trkpt lat="44.40524" lon="6.75687">
        <ele>1443.6</ele>
        <time>2021-06-20T15:56:55Z</time>
      </trkpt>
      <trkpt lat="44.40517" lon="6.75696">
        <ele>1443.9</ele>
        <time>2021-06-20T15:56:59Z</time>
      </trkpt>
      <trkpt lat="44.40511" lon="6.75707">
        <ele>1445</ele>
        <time>2021-06-20T15:57:03Z</time>
      </trkpt>
      <trkpt lat="44.40504" lon="6.75718">
        <ele>1446.1</ele>
        <time>2021-06-20T15:57:07Z</time>
      </trkpt>
      <trkpt lat="44.40495" lon="6.75728">
        <ele>1445.3</ele>
        <time>2021-06-20T15:57:11Z</time>
      </trkpt>
      <trkpt lat="44.40485" lon="6.75737">
        <ele>1442.5</ele>
        <time>2021-06-20T15:57:15Z</time>
      </trkpt>
      <trkpt lat="44.40474" lon="6.75747">
        <ele>1439.5</ele>
        <time>2021-06-20T15:57:19Z</time>
      </trkpt>
      <trkpt lat="44.40472" lon="6.75767">
        <ele>1441.1</ele>
        <time>2021-06-20T15:57:23Z</time>
      </trkpt>
      <trkpt lat="44.40471" lon="6.75788">
        <ele>1442.9</ele>
        <time>2021-06-20T15:57:27Z</time>
      </trkpt>
      <trkpt lat="44.40469" lon="6.75807">
        <ele>1444</ele>
        <time>2021-06-20T15:57:31Z</time>
      </trkpt>
      <trkpt lat="44.40466" lon="6.75813">
        <ele>1443.2</ele>
        <time>2021-06-20T15:57:39Z</time>
      </trkpt>
      <trkpt lat="44.40462" lon="6.75815">
        <ele>1441.6</ele>
        <time>2021-06-20T15:57:43Z</time>
      </trkpt>
      <trkpt lat="44.40456" lon="6.75819">
        <ele>1439.3</ele>
        <time>2021-06-20T15:57:47Z</time>
      </trkpt>
      <trkpt lat="44.40455" lon="6.7582">
        <ele>1438.9</ele>
        <time>2021-06-20T15:57:51Z</time>
      </trkpt>
      <trkpt lat="44.40455" lon="6.7582">
        <ele>1438.9</ele>
        <time>2021-06-20T15:57:59Z</time>
      </trkpt>
      <trkpt lat="44.40453" lon="6.75817">
        <ele>1437.7</ele>
        <time>2021-06-20T15:58:03Z</time>
      </trkpt>
      <trkpt lat="44.4045" lon="6.75814">
        <ele>1435.9</ele>
        <time>2021-06-20T15:58:07Z</time>
      </trkpt>
      <trkpt lat="44.4045" lon="6.75814">
        <ele>1435.9</ele>
        <time>2021-06-20T15:58:11Z</time>
      </trkpt>
      <trkpt lat="44.40451" lon="6.75816">
        <ele>1436.6</ele>
        <time>2021-06-20T15:58:15Z</time>
      </trkpt>
      <trkpt lat="44.40453" lon="6.7582">
        <ele>1438</ele>
        <time>2021-06-20T15:58:19Z</time>
      </trkpt>
      <trkpt lat="44.40454" lon="6.75825">
        <ele>1439.1</ele>
        <time>2021-06-20T15:58:23Z</time>
      </trkpt>
      <trkpt lat="44.40454" lon="6.75835">
        <ele>1440.3</ele>
        <time>2021-06-20T15:58:27Z</time>
      </trkpt>
      <trkpt lat="44.40455" lon="6.75845">
        <ele>1442.2</ele>
        <time>2021-06-20T15:58:31Z</time>
      </trkpt>
      <trkpt lat="44.40457" lon="6.75854">
        <ele>1444.3</ele>
        <time>2021-06-20T15:58:35Z</time>
      </trkpt>
      <trkpt lat="44.40458" lon="6.75863">
        <ele>1446</ele>
        <time>2021-06-20T15:58:39Z</time>
      </trkpt>
      <trkpt lat="44.40457" lon="6.75866">
        <ele>1446</ele>
        <time>2021-06-20T15:58:43Z</time>
      </trkpt>
      <trkpt lat="44.40453" lon="6.75872">
        <ele>1445.2</ele>
        <time>2021-06-20T15:58:47Z</time>
      </trkpt>
      <trkpt lat="44.40445" lon="6.75885">
        <ele>1444.1</ele>
        <time>2021-06-20T15:58:51Z</time>
      </trkpt>
      <trkpt lat="44.40438" lon="6.75895">
        <ele>1443.2</ele>
        <time>2021-06-20T15:58:55Z</time>
      </trkpt>
      <trkpt lat="44.40428" lon="6.759">
        <ele>1440.6</ele>
        <time>2021-06-20T15:58:59Z</time>
      </trkpt>
      <trkpt lat="44.40417" lon="6.75907">
        <ele>1438.1</ele>
        <time>2021-06-20T15:59:03Z</time>
      </trkpt>
      <trkpt lat="44.40407" lon="6.7591">
        <ele>1436.4</ele>
        <time>2021-06-20T15:59:15Z</time>
      </trkpt>
      <trkpt lat="44.40403" lon="6.75911">
        <ele>1435.6</ele>
        <time>2021-06-20T15:59:19Z</time>
      </trkpt>
      <trkpt lat="44.404" lon="6.75911">
        <ele>1434.9</ele>
        <time>2021-06-20T15:59:23Z</time>
      </trkpt>
      <trkpt lat="44.40396" lon="6.75912">
        <ele>1434.2</ele>
        <time>2021-06-20T15:59:27Z</time>
      </trkpt>
      <trkpt lat="44.40393" lon="6.75912">
        <ele>1433.5</ele>
        <time>2021-06-20T15:59:31Z</time>
      </trkpt>
      <trkpt lat="44.40387" lon="6.75911">
        <ele>1431.9</ele>
        <time>2021-06-20T15:59:35Z</time>
      </trkpt>
      <trkpt lat="44.40377" lon="6.75913">
        <ele>1430</ele>
        <time>2021-06-20T15:59:39Z</time>
      </trkpt>
      <trkpt lat="44.40366" lon="6.75912">
        <ele>1427.2</ele>
        <time>2021-06-20T15:59:43Z</time>
      </trkpt>
      <trkpt lat="44.40354" lon="6.75912">
        <ele>1424.4</ele>
        <time>2021-06-20T15:59:47Z</time>
      </trkpt>
      <trkpt lat="44.4034" lon="6.7591">
        <ele>1420.6</ele>
        <time>2021-06-20T15:59:51Z</time>
      </trkpt>
      <trkpt lat="44.40327" lon="6.75913">
        <ele>1418.1</ele>
        <time>2021-06-20T15:59:55Z</time>
      </trkpt>
      <trkpt lat="44.40319" lon="6.75922">
        <ele>1418.3</ele>
        <time>2021-06-20T15:59:59Z</time>
      </trkpt>
      <trkpt lat="44.40311" lon="6.75926">
        <ele>1417.1</ele>
        <time>2021-06-20T16:00:03Z</time>
      </trkpt>
      <trkpt lat="44.40301" lon="6.75931">
        <ele>1415.4</ele>
        <time>2021-06-20T16:00:07Z</time>
      </trkpt>
      <trkpt lat="44.40288" lon="6.75937">
        <ele>1413.2</ele>
        <time>2021-06-20T16:00:11Z</time>
      </trkpt>
      <trkpt lat="44.40283" lon="6.75935">
        <ele>1411.2</ele>
        <time>2021-06-20T16:00:19Z</time>
      </trkpt>
      <trkpt lat="44.40287" lon="6.75924">
        <ele>1409.5</ele>
        <time>2021-06-20T16:00:23Z</time>
      </trkpt>
      <trkpt lat="44.40289" lon="6.75916">
        <ele>1408.1</ele>
        <time>2021-06-20T16:00:27Z</time>
      </trkpt>
      <trkpt lat="44.40293" lon="6.75905">
        <ele>1406.6</ele>
        <time>2021-06-20T16:00:31Z</time>
      </trkpt>
      <trkpt lat="44.40296" lon="6.75896">
        <ele>1405.2</ele>
        <time>2021-06-20T16:00:35Z</time>
      </trkpt>
      <trkpt lat="44.40303" lon="6.75881">
        <ele>1403.1</ele>
        <time>2021-06-20T16:00:39Z</time>
      </trkpt>
      <trkpt lat="44.40315" lon="6.75868">
        <ele>1402.4</ele>
        <time>2021-06-20T16:00:43Z</time>
      </trkpt>
      <trkpt lat="44.40332" lon="6.75843">
        <ele>1398.7</ele>
        <time>2021-06-20T16:00:47Z</time>
      </trkpt>
      <trkpt lat="44.40343" lon="6.75825">
        <ele>1397.1</ele>
        <time>2021-06-20T16:00:51Z</time>
      </trkpt>
      <trkpt lat="44.40347" lon="6.75821">
        <ele>1397.4</ele>
        <time>2021-06-20T16:01:07Z</time>
      </trkpt>
      <trkpt lat="44.40348" lon="6.75817">
        <ele>1396.8</ele>
        <time>2021-06-20T16:01:11Z</time>
      </trkpt>
      <trkpt lat="44.4035" lon="6.75815">
        <ele>1397</ele>
        <time>2021-06-20T16:01:15Z</time>
      </trkpt>
      <trkpt lat="44.40352" lon="6.75815">
        <ele>1397.8</ele>
        <time>2021-06-20T16:01:19Z</time>
      </trkpt>
      <trkpt lat="44.40355" lon="6.75816">
        <ele>1399</ele>
        <time>2021-06-20T16:01:23Z</time>
      </trkpt>
      <trkpt lat="44.40358" lon="6.75818">
        <ele>1400.5</ele>
        <time>2021-06-20T16:01:31Z</time>
      </trkpt>
      <trkpt lat="44.4036" lon="6.75818">
        <ele>1401.2</ele>
        <time>2021-06-20T16:01:35Z</time>
      </trkpt>
      <trkpt lat="44.40361" lon="6.75818">
        <ele>1401.6</ele>
        <time>2021-06-20T16:01:43Z</time>
      </trkpt>
      <trkpt lat="44.40363" lon="6.75818">
        <ele>1402.3</ele>
        <time>2021-06-20T16:01:47Z</time>
      </trkpt>
      <trkpt lat="44.40365" lon="6.75815">
        <ele>1402.3</ele>
        <time>2021-06-20T16:01:51Z</time>
      </trkpt>
      <trkpt lat="44.40368" lon="6.75814">
        <ele>1403.2</ele>
        <time>2021-06-20T16:01:55Z</time>
      </trkpt>
      <trkpt lat="44.40371" lon="6.75814">
        <ele>1404.3</ele>
        <time>2021-06-20T16:02:03Z</time>
      </trkpt>
      <trkpt lat="44.40373" lon="6.75814">
        <ele>1405</ele>
        <time>2021-06-20T16:02:07Z</time>
      </trkpt>
      <trkpt lat="44.40377" lon="6.75814">
        <ele>1406.4</ele>
        <time>2021-06-20T16:02:11Z</time>
      </trkpt>
      <trkpt lat="44.40378" lon="6.75813">
        <ele>1406.5</ele>
        <time>2021-06-20T16:02:15Z</time>
      </trkpt>
      <trkpt lat="44.40379" lon="6.75812">
        <ele>1406.7</ele>
        <time>2021-06-20T16:02:19Z</time>
      </trkpt>
      <trkpt lat="44.4038" lon="6.75804">
        <ele>1405.5</ele>
        <time>2021-06-20T16:02:23Z</time>
      </trkpt>
      <trkpt lat="44.4038" lon="6.75793">
        <ele>1403.5</ele>
        <time>2021-06-20T16:02:27Z</time>
      </trkpt>
      <trkpt lat="44.40378" lon="6.75778">
        <ele>1399.8</ele>
        <time>2021-06-20T16:02:31Z</time>
      </trkpt>
      <trkpt lat="44.40378" lon="6.75759">
        <ele>1396.1</ele>
        <time>2021-06-20T16:02:35Z</time>
      </trkpt>
      <trkpt lat="44.4038" lon="6.75745">
        <ele>1394.3</ele>
        <time>2021-06-20T16:02:39Z</time>
      </trkpt>
      <trkpt lat="44.40381" lon="6.75735">
        <ele>1392.8</ele>
        <time>2021-06-20T16:02:43Z</time>
      </trkpt>
      <trkpt lat="44.40383" lon="6.75722">
        <ele>1391</ele>
        <time>2021-06-20T16:02:47Z</time>
      </trkpt>
      <trkpt lat="44.40384" lon="6.75703">
        <ele>1387.6</ele>
        <time>2021-06-20T16:02:51Z</time>
      </trkpt>
      <trkpt lat="44.40389" lon="6.75689">
        <ele>1386.7</ele>
        <time>2021-06-20T16:02:55Z</time>
      </trkpt>
      <trkpt lat="44.40397" lon="6.75682">
        <ele>1388.3</ele>
        <time>2021-06-20T16:02:59Z</time>
      </trkpt>
      <trkpt lat="44.40405" lon="6.75675">
        <ele>1389.7</ele>
        <time>2021-06-20T16:03:03Z</time>
      </trkpt>
      <trkpt lat="44.40412" lon="6.75662">
        <ele>1389.2</ele>
        <time>2021-06-20T16:03:07Z</time>
      </trkpt>
      <trkpt lat="44.40418" lon="6.75649">
        <ele>1388.2</ele>
        <time>2021-06-20T16:03:11Z</time>
      </trkpt>
      <trkpt lat="44.40423" lon="6.75639">
        <ele>1388.3</ele>
        <time>2021-06-20T16:03:15Z</time>
      </trkpt>
      <trkpt lat="44.40432" lon="6.7563">
        <ele>1390.7</ele>
        <time>2021-06-20T16:03:19Z</time>
      </trkpt>
      <trkpt lat="44.4044" lon="6.75622">
        <ele>1393</ele>
        <time>2021-06-20T16:03:23Z</time>
      </trkpt>
      <trkpt lat="44.40447" lon="6.75614">
        <ele>1394.8</ele>
        <time>2021-06-20T16:03:27Z</time>
      </trkpt>
      <trkpt lat="44.40446" lon="6.75602">
        <ele>1391.5</ele>
        <time>2021-06-20T16:03:31Z</time>
      </trkpt>
      <trkpt lat="44.40445" lon="6.75588">
        <ele>1387.7</ele>
        <time>2021-06-20T16:03:35Z</time>
      </trkpt>
      <trkpt lat="44.40448" lon="6.75581">
        <ele>1387.9</ele>
        <time>2021-06-20T16:03:39Z</time>
      </trkpt>
      <trkpt lat="44.40452" lon="6.75573">
        <ele>1388.9</ele>
        <time>2021-06-20T16:03:43Z</time>
      </trkpt>
      <trkpt lat="44.40453" lon="6.75564">
        <ele>1388</ele>
        <time>2021-06-20T16:03:47Z</time>
      </trkpt>
      <trkpt lat="44.40453" lon="6.75554">
        <ele>1386.5</ele>
        <time>2021-06-20T16:03:51Z</time>
      </trkpt>
      <trkpt lat="44.40456" lon="6.75542">
        <ele>1386.3</ele>
        <time>2021-06-20T16:03:55Z</time>
      </trkpt>
      <trkpt lat="44.40459" lon="6.75526">
        <ele>1385.4</ele>
        <time>2021-06-20T16:03:59Z</time>
      </trkpt>
      <trkpt lat="44.4046" lon="6.75512">
        <ele>1383.8</ele>
        <time>2021-06-20T16:04:03Z</time>
      </trkpt>
      <trkpt lat="44.40465" lon="6.75499">
        <ele>1384.5</ele>
        <time>2021-06-20T16:04:07Z</time>
      </trkpt>
      <trkpt lat="44.40472" lon="6.75489">
        <ele>1386.7</ele>
        <time>2021-06-20T16:04:11Z</time>
      </trkpt>
      <trkpt lat="44.40478" lon="6.7548">
        <ele>1388.3</ele>
        <time>2021-06-20T16:04:15Z</time>
      </trkpt>
      <trkpt lat="44.40484" lon="6.75473">
        <ele>1390.3</ele>
        <time>2021-06-20T16:04:19Z</time>
      </trkpt>
      <trkpt lat="44.40486" lon="6.75459">
        <ele>1388.8</ele>
        <time>2021-06-20T16:04:23Z</time>
      </trkpt>
      <trkpt lat="44.4049" lon="6.75445">
        <ele>1388.3</ele>
        <time>2021-06-20T16:04:27Z</time>
      </trkpt>
      <trkpt lat="44.40494" lon="6.75432">
        <ele>1387.9</ele>
        <time>2021-06-20T16:04:31Z</time>
      </trkpt>
      <trkpt lat="44.405" lon="6.75417">
        <ele>1388.1</ele>
        <time>2021-06-20T16:04:35Z</time>
      </trkpt>
      <trkpt lat="44.40505" lon="6.75405">
        <ele>1388.5</ele>
        <time>2021-06-20T16:04:39Z</time>
      </trkpt>
      <trkpt lat="44.40505" lon="6.75394">
        <ele>1386.9</ele>
        <time>2021-06-20T16:04:43Z</time>
      </trkpt>
      <trkpt lat="44.405" lon="6.75379">
        <ele>1382.6</ele>
        <time>2021-06-20T16:04:47Z</time>
      </trkpt>
      <trkpt lat="44.40497" lon="6.75367">
        <ele>1379.5</ele>
        <time>2021-06-20T16:04:51Z</time>
      </trkpt>
      <trkpt lat="44.40498" lon="6.75353">
        <ele>1378</ele>
        <time>2021-06-20T16:04:55Z</time>
      </trkpt>
      <trkpt lat="44.40501" lon="6.75341">
        <ele>1377.5</ele>
        <time>2021-06-20T16:04:59Z</time>
      </trkpt>
      <trkpt lat="44.4051" lon="6.75336">
        <ele>1380.2</ele>
        <time>2021-06-20T16:05:03Z</time>
      </trkpt>
      <trkpt lat="44.40519" lon="6.75332">
        <ele>1383</ele>
        <time>2021-06-20T16:05:07Z</time>
      </trkpt>
      <trkpt lat="44.40528" lon="6.75329">
        <ele>1385.7</ele>
        <time>2021-06-20T16:05:11Z</time>
      </trkpt>
      <trkpt lat="44.40534" lon="6.75319">
        <ele>1385.6</ele>
        <time>2021-06-20T16:05:15Z</time>
      </trkpt>
      <trkpt lat="44.40538" lon="6.75306">
        <ele>1384</ele>
        <time>2021-06-20T16:05:19Z</time>
      </trkpt>
      <trkpt lat="44.40539" lon="6.7529">
        <ele>1380.6</ele>
        <time>2021-06-20T16:05:23Z</time>
      </trkpt>
      <trkpt lat="44.40541" lon="6.75278">
        <ele>1378.5</ele>
        <time>2021-06-20T16:05:27Z</time>
      </trkpt>
      <trkpt lat="44.40547" lon="6.75269">
        <ele>1378.6</ele>
        <time>2021-06-20T16:05:31Z</time>
      </trkpt>
      <trkpt lat="44.40556" lon="6.75266">
        <ele>1381.3</ele>
        <time>2021-06-20T16:05:35Z</time>
      </trkpt>
      <trkpt lat="44.40565" lon="6.75266">
        <ele>1384.8</ele>
        <time>2021-06-20T16:05:39Z</time>
      </trkpt>
      <trkpt lat="44.40576" lon="6.75264">
        <ele>1388.5</ele>
        <time>2021-06-20T16:05:43Z</time>
      </trkpt>
      <trkpt lat="44.40587" lon="6.75265">
        <ele>1392.8</ele>
        <time>2021-06-20T16:05:47Z</time>
      </trkpt>
      <trkpt lat="44.40596" lon="6.75264">
        <ele>1395.4</ele>
        <time>2021-06-20T16:05:51Z</time>
      </trkpt>
      <trkpt lat="44.40603" lon="6.75255">
        <ele>1395.7</ele>
        <time>2021-06-20T16:05:55Z</time>
      </trkpt>
      <trkpt lat="44.40609" lon="6.75242">
        <ele>1394.1</ele>
        <time>2021-06-20T16:05:59Z</time>
      </trkpt>
      <trkpt lat="44.40613" lon="6.75229">
        <ele>1391.5</ele>
        <time>2021-06-20T16:06:03Z</time>
      </trkpt>
      <trkpt lat="44.40616" lon="6.75217">
        <ele>1389</ele>
        <time>2021-06-20T16:06:07Z</time>
      </trkpt>
      <trkpt lat="44.4062" lon="6.75205">
        <ele>1387.1</ele>
        <time>2021-06-20T16:06:11Z</time>
      </trkpt>
      <trkpt lat="44.40624" lon="6.75192">
        <ele>1385.2</ele>
        <time>2021-06-20T16:06:15Z</time>
      </trkpt>
      <trkpt lat="44.4063" lon="6.75183">
        <ele>1385.5</ele>
        <time>2021-06-20T16:06:19Z</time>
      </trkpt>
      <trkpt lat="44.40639" lon="6.75174">
        <ele>1387.6</ele>
        <time>2021-06-20T16:06:23Z</time>
      </trkpt>
      <trkpt lat="44.40644" lon="6.75163">
        <ele>1387.2</ele>
        <time>2021-06-20T16:06:27Z</time>
      </trkpt>
      <trkpt lat="44.40647" lon="6.75151">
        <ele>1385.1</ele>
        <time>2021-06-20T16:06:31Z</time>
      </trkpt>
      <trkpt lat="44.40652" lon="6.7514">
        <ele>1384.3</ele>
        <time>2021-06-20T16:06:35Z</time>
      </trkpt>
      <trkpt lat="44.40661" lon="6.75136">
        <ele>1387.6</ele>
        <time>2021-06-20T16:06:39Z</time>
      </trkpt>
      <trkpt lat="44.40667" lon="6.75132">
        <ele>1389.3</ele>
        <time>2021-06-20T16:06:43Z</time>
      </trkpt>
      <trkpt lat="44.40676" lon="6.75122">
        <ele>1388.7</ele>
        <time>2021-06-20T16:06:47Z</time>
      </trkpt>
      <trkpt lat="44.40684" lon="6.75121">
        <ele>1390.7</ele>
        <time>2021-06-20T16:06:51Z</time>
      </trkpt>
      <trkpt lat="44.40686" lon="6.75118">
        <ele>1390.4</ele>
        <time>2021-06-20T16:06:55Z</time>
      </trkpt>
      <trkpt lat="44.40692" lon="6.7511">
        <ele>1390</ele>
        <time>2021-06-20T16:06:59Z</time>
      </trkpt>
      <trkpt lat="44.40693" lon="6.75099">
        <ele>1387.3</ele>
        <time>2021-06-20T16:07:03Z</time>
      </trkpt>
      <trkpt lat="44.40701" lon="6.75087">
        <ele>1386.9</ele>
        <time>2021-06-20T16:07:07Z</time>
      </trkpt>
      <trkpt lat="44.40706" lon="6.7508">
        <ele>1386.7</ele>
        <time>2021-06-20T16:07:11Z</time>
      </trkpt>
      <trkpt lat="44.40712" lon="6.75076">
        <ele>1387.7</ele>
        <time>2021-06-20T16:07:23Z</time>
      </trkpt>
      <trkpt lat="44.40717" lon="6.75066">
        <ele>1386.7</ele>
        <time>2021-06-20T16:07:27Z</time>
      </trkpt>
      <trkpt lat="44.40723" lon="6.75049">
        <ele>1384.3</ele>
        <time>2021-06-20T16:07:31Z</time>
      </trkpt>
      <trkpt lat="44.40738" lon="6.75026">
        <ele>1384.3</ele>
        <time>2021-06-20T16:07:35Z</time>
      </trkpt>
      <trkpt lat="44.4075" lon="6.75002">
        <ele>1383.5</ele>
        <time>2021-06-20T16:07:39Z</time>
      </trkpt>
      <trkpt lat="44.40754" lon="6.74971">
        <ele>1374.4</ele>
        <time>2021-06-20T16:07:43Z</time>
      </trkpt>
      <trkpt lat="44.40769" lon="6.74955">
        <ele>1371.3</ele>
        <time>2021-06-20T16:07:47Z</time>
      </trkpt>
      <trkpt lat="44.40781" lon="6.74942">
        <ele>1369.1</ele>
        <time>2021-06-20T16:07:51Z</time>
      </trkpt>
      <trkpt lat="44.408" lon="6.74915">
        <ele>1364.3</ele>
        <time>2021-06-20T16:07:55Z</time>
      </trkpt>
      <trkpt lat="44.40811" lon="6.74893">
        <ele>1360.4</ele>
        <time>2021-06-20T16:07:59Z</time>
      </trkpt>
      <trkpt lat="44.40813" lon="6.74864">
        <ele>1353.4</ele>
        <time>2021-06-20T16:08:03Z</time>
      </trkpt>
      <trkpt lat="44.40823" lon="6.74836">
        <ele>1349.4</ele>
        <time>2021-06-20T16:08:07Z</time>
      </trkpt>
      <trkpt lat="44.40836" lon="6.74815">
        <ele>1346.2</ele>
        <time>2021-06-20T16:08:11Z</time>
      </trkpt>
      <trkpt lat="44.40846" lon="6.74796">
        <ele>1341.6</ele>
        <time>2021-06-20T16:08:15Z</time>
      </trkpt>
      <trkpt lat="44.40858" lon="6.74771">
        <ele>1336.2</ele>
        <time>2021-06-20T16:08:19Z</time>
      </trkpt>
      <trkpt lat="44.40872" lon="6.74743">
        <ele>1331.1</ele>
        <time>2021-06-20T16:08:23Z</time>
      </trkpt>
      <trkpt lat="44.40878" lon="6.74724">
        <ele>1326.8</ele>
        <time>2021-06-20T16:08:27Z</time>
      </trkpt>
      <trkpt lat="44.40887" lon="6.74695">
        <ele>1320.5</ele>
        <time>2021-06-20T16:08:31Z</time>
      </trkpt>
      <trkpt lat="44.409" lon="6.74672">
        <ele>1317.5</ele>
        <time>2021-06-20T16:08:35Z</time>
      </trkpt>
      <trkpt lat="44.40914" lon="6.74648">
        <ele>1313.8</ele>
        <time>2021-06-20T16:08:39Z</time>
      </trkpt>
      <trkpt lat="44.40925" lon="6.74633">
        <ele>1311</ele>
        <time>2021-06-20T16:08:43Z</time>
      </trkpt>
      <trkpt lat="44.40934" lon="6.74625">
        <ele>1310.5</ele>
        <time>2021-06-20T16:08:47Z</time>
      </trkpt>
      <trkpt lat="44.40939" lon="6.74617">
        <ele>1309.2</ele>
        <time>2021-06-20T16:08:51Z</time>
      </trkpt>
      <trkpt lat="44.40944" lon="6.74603">
        <ele>1306.5</ele>
        <time>2021-06-20T16:08:55Z</time>
      </trkpt>
      <trkpt lat="44.40956" lon="6.74583">
        <ele>1304.7</ele>
        <time>2021-06-20T16:09:15Z</time>
      </trkpt>
      <trkpt lat="44.40954" lon="6.74574">
        <ele>1302.2</ele>
        <time>2021-06-20T16:09:19Z</time>
      </trkpt>
      <trkpt lat="44.40954" lon="6.74558">
        <ele>1299</ele>
        <time>2021-06-20T16:09:23Z</time>
      </trkpt>
      <trkpt lat="44.40954" lon="6.74542">
        <ele>1295.8</ele>
        <time>2021-06-20T16:09:27Z</time>
      </trkpt>
      <trkpt lat="44.40956" lon="6.74521">
        <ele>1292.3</ele>
        <time>2021-06-20T16:09:31Z</time>
      </trkpt>
      <trkpt lat="44.40958" lon="6.74499">
        <ele>1288.8</ele>
        <time>2021-06-20T16:09:35Z</time>
      </trkpt>
      <trkpt lat="44.40965" lon="6.74472">
        <ele>1288.2</ele>
        <time>2021-06-20T16:09:39Z</time>
      </trkpt>
      <trkpt lat="44.4097" lon="6.74432">
        <ele>1285.2</ele>
        <time>2021-06-20T16:09:43Z</time>
      </trkpt>
      <trkpt lat="44.40977" lon="6.74391">
        <ele>1282.2</ele>
        <time>2021-06-20T16:09:47Z</time>
      </trkpt>
      <trkpt lat="44.40986" lon="6.74361">
        <ele>1280.7</ele>
        <time>2021-06-20T16:09:51Z</time>
      </trkpt>
      <trkpt lat="44.40993" lon="6.74342">
        <ele>1279.7</ele>
        <time>2021-06-20T16:09:55Z</time>
      </trkpt>
      <trkpt lat="44.41001" lon="6.74322">
        <ele>1278.8</ele>
        <time>2021-06-20T16:09:59Z</time>
      </trkpt>
      <trkpt lat="44.41008" lon="6.74296">
        <ele>1277.5</ele>
        <time>2021-06-20T16:10:03Z</time>
      </trkpt>
      <trkpt lat="44.41016" lon="6.74275">
        <ele>1277.2</ele>
        <time>2021-06-20T16:10:07Z</time>
      </trkpt>
      <trkpt lat="44.4102" lon="6.74248">
        <ele>1274.9</ele>
        <time>2021-06-20T16:10:11Z</time>
      </trkpt>
      <trkpt lat="44.41025" lon="6.74243">
        <ele>1275.7</ele>
        <time>2021-06-20T16:10:19Z</time>
      </trkpt>
      <trkpt lat="44.41026" lon="6.74238">
        <ele>1275.2</ele>
        <time>2021-06-20T16:10:39Z</time>
      </trkpt>
      <trkpt lat="44.41026" lon="6.7423">
        <ele>1274</ele>
        <time>2021-06-20T16:10:43Z</time>
      </trkpt>
      <trkpt lat="44.41026" lon="6.74215">
        <ele>1271.7</ele>
        <time>2021-06-20T16:10:47Z</time>
      </trkpt>
      <trkpt lat="44.41025" lon="6.74197">
        <ele>1268.6</ele>
        <time>2021-06-20T16:10:51Z</time>
      </trkpt>
      <trkpt lat="44.41027" lon="6.74178">
        <ele>1266.2</ele>
        <time>2021-06-20T16:10:55Z</time>
      </trkpt>
      <trkpt lat="44.41029" lon="6.74168">
        <ele>1265.2</ele>
        <time>2021-06-20T16:10:59Z</time>
      </trkpt>
      <trkpt lat="44.41028" lon="6.74159">
        <ele>1263.5</ele>
        <time>2021-06-20T16:11:03Z</time>
      </trkpt>
      <trkpt lat="44.41028" lon="6.74149">
        <ele>1261.9</ele>
        <time>2021-06-20T16:11:07Z</time>
      </trkpt>
      <trkpt lat="44.4103" lon="6.74139">
        <ele>1260.7</ele>
        <time>2021-06-20T16:11:11Z</time>
      </trkpt>
      <trkpt lat="44.41032" lon="6.74131">
        <ele>1259.8</ele>
        <time>2021-06-20T16:11:15Z</time>
      </trkpt>
      <trkpt lat="44.41033" lon="6.74126">
        <ele>1259.2</ele>
        <time>2021-06-20T16:11:19Z</time>
      </trkpt>
      <trkpt lat="44.41034" lon="6.74123">
        <ele>1258.9</ele>
        <time>2021-06-20T16:11:23Z</time>
      </trkpt>
      <trkpt lat="44.41035" lon="6.74122">
        <ele>1258.9</ele>
        <time>2021-06-20T16:11:31Z</time>
      </trkpt>
      <trkpt lat="44.41034" lon="6.74115">
        <ele>1257.5</ele>
        <time>2021-06-20T16:11:35Z</time>
      </trkpt>
      <trkpt lat="44.41029" lon="6.7411">
        <ele>1255.8</ele>
        <time>2021-06-20T16:11:39Z</time>
      </trkpt>
      <trkpt lat="44.41029" lon="6.74106">
        <ele>1255.2</ele>
        <time>2021-06-20T16:11:43Z</time>
      </trkpt>
      <trkpt lat="44.41029" lon="6.741">
        <ele>1254.2</ele>
        <time>2021-06-20T16:11:47Z</time>
      </trkpt>
      <trkpt lat="44.41031" lon="6.7409">
        <ele>1252.8</ele>
        <time>2021-06-20T16:11:51Z</time>
      </trkpt>
      <trkpt lat="44.41032" lon="6.74079">
        <ele>1251.6</ele>
        <time>2021-06-20T16:11:55Z</time>
      </trkpt>
      <trkpt lat="44.41034" lon="6.74067">
        <ele>1251.1</ele>
        <time>2021-06-20T16:11:59Z</time>
      </trkpt>
      <trkpt lat="44.41036" lon="6.74057">
        <ele>1250.6</ele>
        <time>2021-06-20T16:12:03Z</time>
      </trkpt>
      <trkpt lat="44.41039" lon="6.74049">
        <ele>1250.3</ele>
        <time>2021-06-20T16:12:07Z</time>
      </trkpt>
      <trkpt lat="44.41041" lon="6.74045">
        <ele>1250.2</ele>
        <time>2021-06-20T16:12:15Z</time>
      </trkpt>
      <trkpt lat="44.41042" lon="6.74041">
        <ele>1250</ele>
        <time>2021-06-20T16:12:19Z</time>
      </trkpt>
      <trkpt lat="44.41045" lon="6.74036">
        <ele>1249.8</ele>
        <time>2021-06-20T16:12:23Z</time>
      </trkpt>
      <trkpt lat="44.41048" lon="6.74034">
        <ele>1249.8</ele>
        <time>2021-06-20T16:12:27Z</time>
      </trkpt>
      <trkpt lat="44.4105" lon="6.74031">
        <ele>1249.6</ele>
        <time>2021-06-20T16:12:31Z</time>
      </trkpt>
      <trkpt lat="44.41053" lon="6.74023">
        <ele>1249</ele>
        <time>2021-06-20T16:12:35Z</time>
      </trkpt>
      <trkpt lat="44.41055" lon="6.74011">
        <ele>1248</ele>
        <time>2021-06-20T16:12:39Z</time>
      </trkpt>
      <trkpt lat="44.41058" lon="6.73996">
        <ele>1246.8</ele>
        <time>2021-06-20T16:12:43Z</time>
      </trkpt>
      <trkpt lat="44.41059" lon="6.73975">
        <ele>1245.9</ele>
        <time>2021-06-20T16:12:47Z</time>
      </trkpt>
      <trkpt lat="44.41064" lon="6.7395">
        <ele>1244.7</ele>
        <time>2021-06-20T16:12:51Z</time>
      </trkpt>
      <trkpt lat="44.41068" lon="6.73923">
        <ele>1243.5</ele>
        <time>2021-06-20T16:12:55Z</time>
      </trkpt>
      <trkpt lat="44.41075" lon="6.73895">
        <ele>1241.9</ele>
        <time>2021-06-20T16:12:59Z</time>
      </trkpt>
      <trkpt lat="44.41081" lon="6.73863">
        <ele>1239.9</ele>
        <time>2021-06-20T16:13:03Z</time>
      </trkpt>
      <trkpt lat="44.41089" lon="6.73831">
        <ele>1237.8</ele>
        <time>2021-06-20T16:13:07Z</time>
      </trkpt>
      <trkpt lat="44.41097" lon="6.73797">
        <ele>1236.5</ele>
        <time>2021-06-20T16:13:11Z</time>
      </trkpt>
      <trkpt lat="44.41114" lon="6.73771">
        <ele>1235.1</ele>
        <time>2021-06-20T16:13:15Z</time>
      </trkpt>
      <trkpt lat="44.41129" lon="6.73765">
        <ele>1234.5</ele>
        <time>2021-06-20T16:13:19Z</time>
      </trkpt>
      <trkpt lat="44.41147" lon="6.73773">
        <ele>1234.5</ele>
        <time>2021-06-20T16:13:23Z</time>
      </trkpt>
      <trkpt lat="44.41166" lon="6.73783">
        <ele>1234.6</ele>
        <time>2021-06-20T16:13:27Z</time>
      </trkpt>
      <trkpt lat="44.41182" lon="6.73794">
        <ele>1234.6</ele>
        <time>2021-06-20T16:13:31Z</time>
      </trkpt>
      <trkpt lat="44.412" lon="6.73805">
        <ele>1234.4</ele>
        <time>2021-06-20T16:13:35Z</time>
      </trkpt>
      <trkpt lat="44.41217" lon="6.73813">
        <ele>1234.1</ele>
        <time>2021-06-20T16:13:39Z</time>
      </trkpt>
      <trkpt lat="44.41239" lon="6.73827">
        <ele>1233.4</ele>
        <time>2021-06-20T16:13:43Z</time>
      </trkpt>
      <trkpt lat="44.41255" lon="6.73854">
        <ele>1233.1</ele>
        <time>2021-06-20T16:13:47Z</time>
      </trkpt>
      <trkpt lat="44.41263" lon="6.7388">
        <ele>1233</ele>
        <time>2021-06-20T16:13:51Z</time>
      </trkpt>
      <trkpt lat="44.41273" lon="6.73907">
        <ele>1232.8</ele>
        <time>2021-06-20T16:13:55Z</time>
      </trkpt>
      <trkpt lat="44.4128" lon="6.73932">
        <ele>1232.9</ele>
        <time>2021-06-20T16:13:59Z</time>
      </trkpt>
      <trkpt lat="44.41286" lon="6.73953">
        <ele>1233.1</ele>
        <time>2021-06-20T16:14:03Z</time>
      </trkpt>
      <trkpt lat="44.41287" lon="6.73974">
        <ele>1233.6</ele>
        <time>2021-06-20T16:14:07Z</time>
      </trkpt>
      <trkpt lat="44.41285" lon="6.73997">
        <ele>1234.2</ele>
        <time>2021-06-20T16:14:11Z</time>
      </trkpt>
      <trkpt lat="44.41283" lon="6.74016">
        <ele>1236.1</ele>
        <time>2021-06-20T16:14:15Z</time>
      </trkpt>
      <trkpt lat="44.41287" lon="6.74035">
        <ele>1237.7</ele>
        <time>2021-06-20T16:14:19Z</time>
      </trkpt>
      <trkpt lat="44.41294" lon="6.74051">
        <ele>1238.7</ele>
        <time>2021-06-20T16:14:23Z</time>
      </trkpt>
      <trkpt lat="44.41302" lon="6.74065">
        <ele>1239.2</ele>
        <time>2021-06-20T16:14:27Z</time>
      </trkpt>
      <trkpt lat="44.4131" lon="6.7408">
        <ele>1239.5</ele>
        <time>2021-06-20T16:14:31Z</time>
      </trkpt>
      <trkpt lat="44.41317" lon="6.74094">
        <ele>1240.7</ele>
        <time>2021-06-20T16:14:35Z</time>
      </trkpt>
      <trkpt lat="44.41324" lon="6.74107">
        <ele>1241.6</ele>
        <time>2021-06-20T16:14:39Z</time>
      </trkpt>
      <trkpt lat="44.4133" lon="6.7412">
        <ele>1242.5</ele>
        <time>2021-06-20T16:14:43Z</time>
      </trkpt>
      <trkpt lat="44.41336" lon="6.74131">
        <ele>1243.1</ele>
        <time>2021-06-20T16:14:47Z</time>
      </trkpt>
      <trkpt lat="44.41342" lon="6.74141">
        <ele>1243.8</ele>
        <time>2021-06-20T16:14:51Z</time>
      </trkpt>
      <trkpt lat="44.41348" lon="6.7415">
        <ele>1244.3</ele>
        <time>2021-06-20T16:14:55Z</time>
      </trkpt>
      <trkpt lat="44.41355" lon="6.7416">
        <ele>1244.7</ele>
        <time>2021-06-20T16:14:59Z</time>
      </trkpt>
      <trkpt lat="44.41361" lon="6.74169">
        <ele>1244.9</ele>
        <time>2021-06-20T16:15:03Z</time>
      </trkpt>
      <trkpt lat="44.41367" lon="6.74175">
        <ele>1244.6</ele>
        <time>2021-06-20T16:15:07Z</time>
      </trkpt>
      <trkpt lat="44.41376" lon="6.74177">
        <ele>1243.6</ele>
        <time>2021-06-20T16:15:11Z</time>
      </trkpt>
      <trkpt lat="44.41387" lon="6.74181">
        <ele>1242.4</ele>
        <time>2021-06-20T16:15:15Z</time>
      </trkpt>
      <trkpt lat="44.414" lon="6.74185">
        <ele>1240.9</ele>
        <time>2021-06-20T16:15:19Z</time>
      </trkpt>
      <trkpt lat="44.41416" lon="6.74189">
        <ele>1238.9</ele>
        <time>2021-06-20T16:15:23Z</time>
      </trkpt>
      <trkpt lat="44.41435" lon="6.74187">
        <ele>1238.2</ele>
        <time>2021-06-20T16:15:27Z</time>
      </trkpt>
      <trkpt lat="44.41453" lon="6.74185">
        <ele>1237.7</ele>
        <time>2021-06-20T16:15:31Z</time>
      </trkpt>
      <trkpt lat="44.41469" lon="6.74184">
        <ele>1237.2</ele>
        <time>2021-06-20T16:15:35Z</time>
      </trkpt>
      <trkpt lat="44.41475" lon="6.7416">
        <ele>1236.5</ele>
        <time>2021-06-20T16:15:39Z</time>
      </trkpt>
      <trkpt lat="44.41476" lon="6.74133">
        <ele>1235.9</ele>
        <time>2021-06-20T16:15:43Z</time>
      </trkpt>
      <trkpt lat="44.41477" lon="6.74112">
        <ele>1235.5</ele>
        <time>2021-06-20T16:15:47Z</time>
      </trkpt>
      <trkpt lat="44.41477" lon="6.74091">
        <ele>1235.1</ele>
        <time>2021-06-20T16:15:51Z</time>
      </trkpt>
      <trkpt lat="44.41479" lon="6.74068">
        <ele>1234.2</ele>
        <time>2021-06-20T16:15:55Z</time>
      </trkpt>
      <trkpt lat="44.41482" lon="6.74041">
        <ele>1232.7</ele>
        <time>2021-06-20T16:15:59Z</time>
      </trkpt>
      <trkpt lat="44.41489" lon="6.74007">
        <ele>1230.7</ele>
        <time>2021-06-20T16:16:03Z</time>
      </trkpt>
      <trkpt lat="44.41497" lon="6.73975">
        <ele>1230.1</ele>
        <time>2021-06-20T16:16:07Z</time>
      </trkpt>
      <trkpt lat="44.41516" lon="6.73954">
        <ele>1229.5</ele>
        <time>2021-06-20T16:16:11Z</time>
      </trkpt>
      <trkpt lat="44.41539" lon="6.73932">
        <ele>1228.4</ele>
        <time>2021-06-20T16:16:15Z</time>
      </trkpt>
      <trkpt lat="44.41556" lon="6.73901">
        <ele>1227.1</ele>
        <time>2021-06-20T16:16:19Z</time>
      </trkpt>
      <trkpt lat="44.41572" lon="6.73866">
        <ele>1225.5</ele>
        <time>2021-06-20T16:16:23Z</time>
      </trkpt>
      <trkpt lat="44.41589" lon="6.73831">
        <ele>1223.9</ele>
        <time>2021-06-20T16:16:27Z</time>
      </trkpt>
      <trkpt lat="44.41608" lon="6.73797">
        <ele>1223</ele>
        <time>2021-06-20T16:16:31Z</time>
      </trkpt>
      <trkpt lat="44.41635" lon="6.73775">
        <ele>1222.4</ele>
        <time>2021-06-20T16:16:35Z</time>
      </trkpt>
      <trkpt lat="44.41663" lon="6.73752">
        <ele>1222</ele>
        <time>2021-06-20T16:16:39Z</time>
      </trkpt>
      <trkpt lat="44.4169" lon="6.73727">
        <ele>1221</ele>
        <time>2021-06-20T16:16:43Z</time>
      </trkpt>
      <trkpt lat="44.41717" lon="6.73704">
        <ele>1220.1</ele>
        <time>2021-06-20T16:16:47Z</time>
      </trkpt>
      <trkpt lat="44.41739" lon="6.73686">
        <ele>1219.5</ele>
        <time>2021-06-20T16:16:51Z</time>
      </trkpt>
      <trkpt lat="44.41754" lon="6.73691">
        <ele>1219.6</ele>
        <time>2021-06-20T16:16:55Z</time>
      </trkpt>
      <trkpt lat="44.41765" lon="6.73708">
        <ele>1219.9</ele>
        <time>2021-06-20T16:16:59Z</time>
      </trkpt>
      <trkpt lat="44.41777" lon="6.73704">
        <ele>1219.8</ele>
        <time>2021-06-20T16:17:03Z</time>
      </trkpt>
      <trkpt lat="44.41785" lon="6.73694">
        <ele>1219.5</ele>
        <time>2021-06-20T16:17:07Z</time>
      </trkpt>
      <trkpt lat="44.41792" lon="6.73683">
        <ele>1219.3</ele>
        <time>2021-06-20T16:17:11Z</time>
      </trkpt>
      <trkpt lat="44.41803" lon="6.73668">
        <ele>1219</ele>
        <time>2021-06-20T16:17:15Z</time>
      </trkpt>
      <trkpt lat="44.41821" lon="6.73643">
        <ele>1218.2</ele>
        <time>2021-06-20T16:17:19Z</time>
      </trkpt>
      <trkpt lat="44.41843" lon="6.73619">
        <ele>1217.4</ele>
        <time>2021-06-20T16:17:23Z</time>
      </trkpt>
      <trkpt lat="44.41864" lon="6.736">
        <ele>1217.4</ele>
        <time>2021-06-20T16:17:27Z</time>
      </trkpt>
      <trkpt lat="44.41876" lon="6.73579">
        <ele>1217.5</ele>
        <time>2021-06-20T16:17:31Z</time>
      </trkpt>
      <trkpt lat="44.41888" lon="6.73566">
        <ele>1217.8</ele>
        <time>2021-06-20T16:17:35Z</time>
      </trkpt>
      <trkpt lat="44.41897" lon="6.73556">
        <ele>1218.1</ele>
        <time>2021-06-20T16:17:39Z</time>
      </trkpt>
      <trkpt lat="44.41906" lon="6.73546">
        <ele>1218.4</ele>
        <time>2021-06-20T16:17:43Z</time>
      </trkpt>
      <trkpt lat="44.41915" lon="6.73534">
        <ele>1218.9</ele>
        <time>2021-06-20T16:17:47Z</time>
      </trkpt>
      <trkpt lat="44.41924" lon="6.73527">
        <ele>1219.1</ele>
        <time>2021-06-20T16:17:51Z</time>
      </trkpt>
      <trkpt lat="44.41933" lon="6.7352">
        <ele>1219.2</ele>
        <time>2021-06-20T16:17:55Z</time>
      </trkpt>
      <trkpt lat="44.41937" lon="6.73512">
        <ele>1219.2</ele>
        <time>2021-06-20T16:17:59Z</time>
      </trkpt>
      <trkpt lat="44.41938" lon="6.73505">
        <ele>1219.3</ele>
        <time>2021-06-20T16:18:03Z</time>
      </trkpt>
      <trkpt lat="44.41933" lon="6.73491">
        <ele>1219.7</ele>
        <time>2021-06-20T16:18:07Z</time>
      </trkpt>
      <trkpt lat="44.41928" lon="6.7348">
        <ele>1220.1</ele>
        <time>2021-06-20T16:18:11Z</time>
      </trkpt>
      <trkpt lat="44.41927" lon="6.73476">
        <ele>1220.2</ele>
        <time>2021-06-20T16:18:15Z</time>
      </trkpt>
      <trkpt lat="44.4193" lon="6.73486">
        <ele>1219.9</ele>
        <time>2021-06-20T16:18:19Z</time>
      </trkpt>
      <trkpt lat="44.41935" lon="6.73497">
        <ele>1219.4</ele>
        <time>2021-06-20T16:18:23Z</time>
      </trkpt>
      <trkpt lat="44.41939" lon="6.73509">
        <ele>1219.3</ele>
        <time>2021-06-20T16:18:27Z</time>
      </trkpt>
      <trkpt lat="44.41946" lon="6.7352">
        <ele>1219.4</ele>
        <time>2021-06-20T16:18:31Z</time>
      </trkpt>
      <trkpt lat="44.41952" lon="6.73533">
        <ele>1219.4</ele>
        <time>2021-06-20T16:18:35Z</time>
      </trkpt>
      <trkpt lat="44.41957" lon="6.73547">
        <ele>1219.5</ele>
        <time>2021-06-20T16:18:39Z</time>
      </trkpt>
    </trkseg>
  </trk>
</gpx>